<?xml version='1.0' encoding='UTF-8'?><gpx version="1.1" creator="JPX - https://github.com/jenetics/jpx" xmlns="http://www.topografix.com/GPX/1/1"><trk><trkseg><trkpt lat="45.6343214" lon="11.4154384"><ele>153.0</ele><time>2026-03-31T15:44:49.168Z</time></trkpt><trkpt lat="45.6342443" lon="11.415423"><ele>153.0</ele><time>2026-03-31T15:44:52.168Z</time></trkpt><trkpt lat="45.6341872" lon="11.4154887"><ele>153.0</ele><time>2026-03-31T15:44:54.169Z</time></trkpt><trkpt lat="45.63421" lon="11.4156091"><ele>153.0</ele><time>2026-03-31T15:44:55.169Z</time></trkpt><trkpt lat="45.6342252" lon="11.41573"><ele>153.0</ele><time>2026-03-31T15:44:57.169Z</time></trkpt><trkpt lat="45.6342439" lon="11.4158865"><ele>153.0</ele><time>2026-03-31T15:44:59.17Z</time></trkpt><trkpt lat="45.6342462" lon="11.4160233"><ele>153.0</ele><time>2026-03-31T15:45:00.169Z</time></trkpt><trkpt lat="45.6342233" lon="11.4161593"><ele>153.0</ele><time>2026-03-31T15:45:01.169Z</time></trkpt><trkpt lat="45.6342393" lon="11.4163383"><ele>153.0</ele><time>2026-03-31T15:45:02.168Z</time></trkpt><trkpt lat="45.634235" lon="11.416449"><ele>153.0</ele><time>2026-03-31T15:45:03.167Z</time></trkpt><trkpt lat="45.6342297" lon="11.4165578"><ele>153.0</ele><time>2026-03-31T15:45:04.169Z</time></trkpt><trkpt lat="45.6342648" lon="11.4167543"><ele>151.5</ele><time>2026-03-31T15:45:05.17Z</time></trkpt><trkpt lat="45.6342619" lon="11.4168911"><ele>150.0</ele><time>2026-03-31T15:45:06.168Z</time></trkpt><trkpt lat="45.6342519" lon="11.4170195"><ele>148.5</ele><time>2026-03-31T15:45:07.168Z</time></trkpt><trkpt lat="45.6342586" lon="11.4171214"><ele>147.0</ele><time>2026-03-31T15:45:08.17Z</time></trkpt><trkpt lat="45.6342561" lon="11.4172205"><ele>145.5</ele><time>2026-03-31T15:45:09.168Z</time></trkpt><trkpt lat="45.6342884" lon="11.4173241"><ele>144.0</ele><time>2026-03-31T15:45:10.169Z</time></trkpt><trkpt lat="45.6343053" lon="11.4174249"><ele>142.5</ele><time>2026-03-31T15:45:11.169Z</time></trkpt><trkpt lat="45.6345026" lon="11.4173562"><ele>141.0</ele><time>2026-03-31T15:45:12.17Z</time></trkpt><trkpt lat="45.6345953" lon="11.4173719"><ele>139.5</ele><time>2026-03-31T15:45:13.168Z</time></trkpt><trkpt lat="45.6346826" lon="11.4173892"><ele>138.0</ele><time>2026-03-31T15:45:14.169Z</time></trkpt><trkpt lat="45.6347635" lon="11.4174031"><ele>138.0</ele><time>2026-03-31T15:45:15.168Z</time></trkpt><trkpt lat="45.6348445" lon="11.4174096"><ele>138.0</ele><time>2026-03-31T15:45:16.168Z</time></trkpt><trkpt lat="45.634909" lon="11.4174153"><ele>138.0</ele><time>2026-03-31T15:45:17.169Z</time></trkpt><trkpt lat="45.6348429" lon="11.4176403"><ele>138.0</ele><time>2026-03-31T15:45:21.17Z</time></trkpt><trkpt lat="45.6347259" lon="11.4178755"><ele>136.0</ele><time>2026-03-31T15:45:23.168Z</time></trkpt><trkpt lat="45.6346507" lon="11.4180254"><ele>134.0</ele><time>2026-03-31T15:45:24.168Z</time></trkpt><trkpt lat="45.6346021" lon="11.4181614"><ele>132.0</ele><time>2026-03-31T15:45:25.169Z</time></trkpt><trkpt lat="45.634558" lon="11.4183142"><ele>130.0</ele><time>2026-03-31T15:45:26.169Z</time></trkpt><trkpt lat="45.6345011" lon="11.4184203"><ele>128.0</ele><time>2026-03-31T15:45:27.168Z</time></trkpt><trkpt lat="45.6344137" lon="11.4185325"><ele>127.80000000000001</ele><time>2026-03-31T15:45:28.169Z</time></trkpt><trkpt lat="45.6343492" lon="11.4186243"><ele>127.60000000000001</ele><time>2026-03-31T15:45:29.17Z</time></trkpt><trkpt lat="45.6343097" lon="11.4187563"><ele>127.39999999999999</ele><time>2026-03-31T15:45:30.168Z</time></trkpt><trkpt lat="45.6342613" lon="11.4188527"><ele>127.19999999999999</ele><time>2026-03-31T15:45:31.169Z</time></trkpt><trkpt lat="45.634226" lon="11.4190189"><ele>127.0</ele><time>2026-03-31T15:45:33.169Z</time></trkpt><trkpt lat="45.6341957" lon="11.4191254"><ele>125.6</ele><time>2026-03-31T15:45:34.169Z</time></trkpt><trkpt lat="45.6342105" lon="11.4192667"><ele>124.19999999999999</ele><time>2026-03-31T15:45:35.168Z</time></trkpt><trkpt lat="45.6341955" lon="11.4193724"><ele>122.8</ele><time>2026-03-31T15:45:36.169Z</time></trkpt><trkpt lat="45.6342515" lon="11.4195691"><ele>121.4</ele><time>2026-03-31T15:45:37.17Z</time></trkpt><trkpt lat="45.6342845" lon="11.4197365"><ele>120.0</ele><time>2026-03-31T15:45:38.168Z</time></trkpt><trkpt lat="45.6343155" lon="11.4198993"><ele>118.0</ele><time>2026-03-31T15:45:39.168Z</time></trkpt><trkpt lat="45.6343556" lon="11.4200616"><ele>116.0</ele><time>2026-03-31T15:45:40.169Z</time></trkpt><trkpt lat="45.6343937" lon="11.4202333"><ele>114.0</ele><time>2026-03-31T15:45:41.169Z</time></trkpt><trkpt lat="45.63444" lon="11.4204172"><ele>112.0</ele><time>2026-03-31T15:45:42.168Z</time></trkpt><trkpt lat="45.6344722" lon="11.4205948"><ele>109.75</ele><time>2026-03-31T15:45:43.167Z</time></trkpt><trkpt lat="45.6345269" lon="11.4208137"><ele>107.5</ele><time>2026-03-31T15:45:44.169Z</time></trkpt><trkpt lat="45.6345581" lon="11.4209998"><ele>105.25</ele><time>2026-03-31T15:45:45.17Z</time></trkpt><trkpt lat="45.6345924" lon="11.4211784"><ele>103.0</ele><time>2026-03-31T15:45:46.169Z</time></trkpt><trkpt lat="45.6346185" lon="11.4213584"><ele>101.5</ele><time>2026-03-31T15:45:47.169Z</time></trkpt><trkpt lat="45.63468" lon="11.4215332"><ele>100.0</ele><time>2026-03-31T15:45:48.169Z</time></trkpt><trkpt lat="45.6347244" lon="11.421721"><ele>98.5</ele><time>2026-03-31T15:45:49.168Z</time></trkpt><trkpt lat="45.6347696" lon="11.4218945"><ele>97.0</ele><time>2026-03-31T15:45:50.168Z</time></trkpt><trkpt lat="45.6348033" lon="11.4220633"><ele>95.75</ele><time>2026-03-31T15:45:51.167Z</time></trkpt><trkpt lat="45.6348579" lon="11.4222514"><ele>94.5</ele><time>2026-03-31T15:45:52.168Z</time></trkpt><trkpt lat="45.6349001" lon="11.422422"><ele>93.25</ele><time>2026-03-31T15:45:53.169Z</time></trkpt><trkpt lat="45.6349416" lon="11.4225762"><ele>92.0</ele><time>2026-03-31T15:45:54.169Z</time></trkpt><trkpt lat="45.6349802" lon="11.4227328"><ele>92.0</ele><time>2026-03-31T15:45:55.167Z</time></trkpt><trkpt lat="45.6350097" lon="11.4228874"><ele>92.0</ele><time>2026-03-31T15:45:56.167Z</time></trkpt><trkpt lat="45.6350388" lon="11.4229828"><ele>92.0</ele><time>2026-03-31T15:45:57.168Z</time></trkpt><trkpt lat="45.635062" lon="11.423097"><ele>92.0</ele><time>2026-03-31T15:45:58.169Z</time></trkpt><trkpt lat="45.6350956" lon="11.423216"><ele>92.0</ele><time>2026-03-31T15:46:00.167Z</time></trkpt><trkpt lat="45.6350919" lon="11.4233339"><ele>92.0</ele><time>2026-03-31T15:46:02.169Z</time></trkpt><trkpt lat="45.6348998" lon="11.4230835"><ele>91.0</ele><time>2026-03-31T15:46:05.9Z</time></trkpt><trkpt lat="45.6351219" lon="11.4233255"><ele>90.0</ele><time>2026-03-31T15:46:06.899Z</time></trkpt><trkpt lat="45.6348399" lon="11.4233799"><ele>90.0</ele><time>2026-03-31T15:46:09.9Z</time></trkpt><trkpt lat="45.6347432" lon="11.4233784"><ele>90.0</ele><time>2026-03-31T15:46:11.9Z</time></trkpt><trkpt lat="45.6346976" lon="11.4232833"><ele>90.0</ele><time>2026-03-31T15:46:12.9Z</time></trkpt><trkpt lat="45.6345967" lon="11.4234014"><ele>90.0</ele><time>2026-03-31T15:46:14.901Z</time></trkpt><trkpt lat="45.6344957" lon="11.4233863"><ele>90.0</ele><time>2026-03-31T15:46:15.901Z</time></trkpt><trkpt lat="45.6344425" lon="11.4235345"><ele>90.5</ele><time>2026-03-31T15:46:16.901Z</time></trkpt><trkpt lat="45.6343518" lon="11.4235791"><ele>91.0</ele><time>2026-03-31T15:46:17.9Z</time></trkpt><trkpt lat="45.6341814" lon="11.4236317"><ele>91.5</ele><time>2026-03-31T15:46:21.9Z</time></trkpt><trkpt lat="45.6340858" lon="11.4236788"><ele>92.0</ele><time>2026-03-31T15:46:22.899Z</time></trkpt><trkpt lat="45.633989" lon="11.4238075"><ele>91.5</ele><time>2026-03-31T15:46:24.901Z</time></trkpt><trkpt lat="45.633813" lon="11.4240571"><ele>91.0</ele><time>2026-03-31T15:46:25.9Z</time></trkpt><trkpt lat="45.6337436" lon="11.4240025"><ele>90.5</ele><time>2026-03-31T15:46:28.169Z</time></trkpt><trkpt lat="45.6336576" lon="11.4240327"><ele>90.0</ele><time>2026-03-31T15:46:30.169Z</time></trkpt><trkpt lat="45.6335987" lon="11.4239867"><ele>90.0</ele><time>2026-03-31T15:46:32.169Z</time></trkpt><trkpt lat="45.633564" lon="11.4238337"><ele>90.0</ele><time>2026-03-31T15:46:34.167Z</time></trkpt><trkpt lat="45.6335284" lon="11.4237193"><ele>90.0</ele><time>2026-03-31T15:46:36.167Z</time></trkpt><trkpt lat="45.6334823" lon="11.423577"><ele>90.0</ele><time>2026-03-31T15:46:38.167Z</time></trkpt><trkpt lat="45.633446" lon="11.4234385"><ele>90.0</ele><time>2026-03-31T15:46:40.168Z</time></trkpt><trkpt lat="45.6333735" lon="11.4233071"><ele>90.75</ele><time>2026-03-31T15:46:42.168Z</time></trkpt><trkpt lat="45.633311" lon="11.4232562"><ele>91.5</ele><time>2026-03-31T15:46:44.168Z</time></trkpt><trkpt lat="45.6332053" lon="11.4232508"><ele>92.25</ele><time>2026-03-31T15:46:45.168Z</time></trkpt><trkpt lat="45.6331023" lon="11.4231999"><ele>93.0</ele><time>2026-03-31T15:46:47.17Z</time></trkpt><trkpt lat="45.6329716" lon="11.4230141"><ele>93.5</ele><time>2026-03-31T15:46:49.17Z</time></trkpt><trkpt lat="45.6329081" lon="11.422837"><ele>94.0</ele><time>2026-03-31T15:46:51.167Z</time></trkpt><trkpt lat="45.6328811" lon="11.4227469"><ele>94.5</ele><time>2026-03-31T15:46:52.168Z</time></trkpt><trkpt lat="45.6328651" lon="11.4226504"><ele>95.0</ele><time>2026-03-31T15:46:53.168Z</time></trkpt><trkpt lat="45.6328337" lon="11.4225481"><ele>95.5</ele><time>2026-03-31T15:46:54.168Z</time></trkpt><trkpt lat="45.6328058" lon="11.4224372"><ele>96.0</ele><time>2026-03-31T15:46:55.168Z</time></trkpt><trkpt lat="45.6327812" lon="11.4223384"><ele>94.8</ele><time>2026-03-31T15:46:56.168Z</time></trkpt><trkpt lat="45.6327595" lon="11.4222381"><ele>93.6</ele><time>2026-03-31T15:46:57.169Z</time></trkpt><trkpt lat="45.6327708" lon="11.422134"><ele>92.4</ele><time>2026-03-31T15:46:58.169Z</time></trkpt><trkpt lat="45.632747" lon="11.4219507"><ele>91.2</ele><time>2026-03-31T15:47:00.167Z</time></trkpt><trkpt lat="45.6327323" lon="11.421841"><ele>90.0</ele><time>2026-03-31T15:47:01.168Z</time></trkpt><trkpt lat="45.632683" lon="11.4216501"><ele>90.0</ele><time>2026-03-31T15:47:03.169Z</time></trkpt><trkpt lat="45.6326748" lon="11.4214713"><ele>90.0</ele><time>2026-03-31T15:47:05.169Z</time></trkpt><trkpt lat="45.6326947" lon="11.4213033"><ele>90.0</ele><time>2026-03-31T15:47:06.169Z</time></trkpt><trkpt lat="45.6326836" lon="11.4212011"><ele>90.0</ele><time>2026-03-31T15:47:07.17Z</time></trkpt><trkpt lat="45.632676" lon="11.4211011"><ele>90.0</ele><time>2026-03-31T15:47:08.169Z</time></trkpt><trkpt lat="45.6326742" lon="11.4209911"><ele>90.0</ele><time>2026-03-31T15:47:09.169Z</time></trkpt><trkpt lat="45.632679" lon="11.4207637"><ele>90.0</ele><time>2026-03-31T15:47:11.169Z</time></trkpt><trkpt lat="45.632669" lon="11.4206654"><ele>90.0</ele><time>2026-03-31T15:47:12.169Z</time></trkpt><trkpt lat="45.6326667" lon="11.4205316"><ele>90.0</ele><time>2026-03-31T15:47:13.169Z</time></trkpt><trkpt lat="45.6326661" lon="11.4204172"><ele>90.0</ele><time>2026-03-31T15:47:14.168Z</time></trkpt><trkpt lat="45.6326677" lon="11.4202244"><ele>90.0</ele><time>2026-03-31T15:47:16.168Z</time></trkpt><trkpt lat="45.6326619" lon="11.420111"><ele>90.0</ele><time>2026-03-31T15:47:17.169Z</time></trkpt><trkpt lat="45.6326603" lon="11.4199886"><ele>90.0</ele><time>2026-03-31T15:47:18.17Z</time></trkpt><trkpt lat="45.6326587" lon="11.4198788"><ele>90.0</ele><time>2026-03-31T15:47:19.169Z</time></trkpt><trkpt lat="45.6326567" lon="11.4197646"><ele>90.0</ele><time>2026-03-31T15:47:20.168Z</time></trkpt><trkpt lat="45.6326588" lon="11.4196602"><ele>90.0</ele><time>2026-03-31T15:47:21.17Z</time></trkpt><trkpt lat="45.6326437" lon="11.4195616"><ele>89.83333333333333</ele><time>2026-03-31T15:47:22.169Z</time></trkpt><trkpt lat="45.6326403" lon="11.4194684"><ele>89.66666666666667</ele><time>2026-03-31T15:47:23.169Z</time></trkpt><trkpt lat="45.632657" lon="11.4193355"><ele>89.5</ele><time>2026-03-31T15:47:24.17Z</time></trkpt><trkpt lat="45.6326459" lon="11.4192201"><ele>89.33333333333334</ele><time>2026-03-31T15:47:25.169Z</time></trkpt><trkpt lat="45.6326449" lon="11.4191181"><ele>89.16666666666667</ele><time>2026-03-31T15:47:26.168Z</time></trkpt><trkpt lat="45.6325902" lon="11.4189678"><ele>89.0</ele><time>2026-03-31T15:47:28.168Z</time></trkpt><trkpt lat="45.6325764" lon="11.4188296"><ele>90.0</ele><time>2026-03-31T15:47:29.171Z</time></trkpt><trkpt lat="45.6325564" lon="11.4187337"><ele>91.0</ele><time>2026-03-31T15:47:30.169Z</time></trkpt><trkpt lat="45.6325398" lon="11.4186128"><ele>92.0</ele><time>2026-03-31T15:47:32.169Z</time></trkpt><trkpt lat="45.6324955" lon="11.4184248"><ele>93.0</ele><time>2026-03-31T15:47:34.17Z</time></trkpt><trkpt lat="45.6324569" lon="11.4183319"><ele>94.0</ele><time>2026-03-31T15:47:35.168Z</time></trkpt><trkpt lat="45.6324269" lon="11.4182387"><ele>95.0</ele><time>2026-03-31T15:47:36.167Z</time></trkpt><trkpt lat="45.6323927" lon="11.4181484"><ele>95.0</ele><time>2026-03-31T15:47:37.169Z</time></trkpt><trkpt lat="45.6323453" lon="11.4180744"><ele>95.0</ele><time>2026-03-31T15:47:38.168Z</time></trkpt><trkpt lat="45.6323097" lon="11.417991"><ele>95.0</ele><time>2026-03-31T15:47:39.167Z</time></trkpt><trkpt lat="45.6322605" lon="11.4179102"><ele>95.0</ele><time>2026-03-31T15:47:40.17Z</time></trkpt><trkpt lat="45.6322175" lon="11.4178316"><ele>95.0</ele><time>2026-03-31T15:47:41.169Z</time></trkpt><trkpt lat="45.6321734" lon="11.4177595"><ele>95.0</ele><time>2026-03-31T15:47:42.169Z</time></trkpt><trkpt lat="45.6321247" lon="11.4176852"><ele>95.0</ele><time>2026-03-31T15:47:43.169Z</time></trkpt><trkpt lat="45.6320521" lon="11.417595"><ele>94.16666666666667</ele><time>2026-03-31T15:47:45.168Z</time></trkpt><trkpt lat="45.6319846" lon="11.4174651"><ele>93.33333333333334</ele><time>2026-03-31T15:47:47.168Z</time></trkpt><trkpt lat="45.6319436" lon="11.417386"><ele>92.5</ele><time>2026-03-31T15:47:48.168Z</time></trkpt><trkpt lat="45.6319014" lon="11.417302"><ele>91.66666666666667</ele><time>2026-03-31T15:47:49.169Z</time></trkpt><trkpt lat="45.63184" lon="11.4172541"><ele>90.83333333333333</ele><time>2026-03-31T15:47:50.17Z</time></trkpt><trkpt lat="45.6317571" lon="11.4171277"><ele>90.0</ele><time>2026-03-31T15:47:52.168Z</time></trkpt><trkpt lat="45.6316957" lon="11.4170668"><ele>90.0</ele><time>2026-03-31T15:47:53.169Z</time></trkpt><trkpt lat="45.6316492" lon="11.417001"><ele>90.0</ele><time>2026-03-31T15:47:54.168Z</time></trkpt><trkpt lat="45.6315665" lon="11.4168972"><ele>90.0</ele><time>2026-03-31T15:47:56.169Z</time></trkpt><trkpt lat="45.6314653" lon="11.4168059"><ele>90.0</ele><time>2026-03-31T15:47:58.169Z</time></trkpt><trkpt lat="45.6314071" lon="11.4167668"><ele>90.0</ele><time>2026-03-31T15:47:59.169Z</time></trkpt><trkpt lat="45.631325" lon="11.4167065"><ele>90.0</ele><time>2026-03-31T15:48:01.167Z</time></trkpt><trkpt lat="45.63124" lon="11.4166629"><ele>90.0</ele><time>2026-03-31T15:48:02.17Z</time></trkpt><trkpt lat="45.6311265" lon="11.4166079"><ele>90.0</ele><time>2026-03-31T15:48:04.17Z</time></trkpt><trkpt lat="45.6310089" lon="11.4165364"><ele>90.0</ele><time>2026-03-31T15:48:06.169Z</time></trkpt><trkpt lat="45.6309043" lon="11.4164501"><ele>90.2</ele><time>2026-03-31T15:48:08.169Z</time></trkpt><trkpt lat="45.6308365" lon="11.4163793"><ele>90.4</ele><time>2026-03-31T15:48:09.168Z</time></trkpt><trkpt lat="45.6307639" lon="11.4163392"><ele>90.6</ele><time>2026-03-31T15:48:10.167Z</time></trkpt><trkpt lat="45.6306876" lon="11.4162973"><ele>90.8</ele><time>2026-03-31T15:48:11.168Z</time></trkpt><trkpt lat="45.630575" lon="11.4161884"><ele>91.0</ele><time>2026-03-31T15:48:13.167Z</time></trkpt><trkpt lat="45.6305538" lon="11.4160884"><ele>91.0</ele><time>2026-03-31T15:48:14.168Z</time></trkpt><trkpt lat="45.6305159" lon="11.416006"><ele>91.0</ele><time>2026-03-31T15:48:15.168Z</time></trkpt><trkpt lat="45.6304427" lon="11.4159435"><ele>91.0</ele><time>2026-03-31T15:48:16.169Z</time></trkpt><trkpt lat="45.6304084" lon="11.415844"><ele>91.0</ele><time>2026-03-31T15:48:17.168Z</time></trkpt><trkpt lat="45.6303696" lon="11.4157336"><ele>91.0</ele><time>2026-03-31T15:48:18.168Z</time></trkpt><trkpt lat="45.6303267" lon="11.4156361"><ele>91.0</ele><time>2026-03-31T15:48:19.168Z</time></trkpt><trkpt lat="45.6302914" lon="11.4155375"><ele>90.71428571428571</ele><time>2026-03-31T15:48:20.169Z</time></trkpt><trkpt lat="45.6302601" lon="11.4154551"><ele>90.42857142857143</ele><time>2026-03-31T15:48:21.168Z</time></trkpt><trkpt lat="45.6302261" lon="11.4153521"><ele>90.14285714285714</ele><time>2026-03-31T15:48:22.168Z</time></trkpt><trkpt lat="45.6301892" lon="11.4152484"><ele>89.85714285714286</ele><time>2026-03-31T15:48:23.167Z</time></trkpt><trkpt lat="45.6301615" lon="11.4151549"><ele>89.57142857142857</ele><time>2026-03-31T15:48:24.169Z</time></trkpt><trkpt lat="45.6301303" lon="11.4150462"><ele>89.28571428571428</ele><time>2026-03-31T15:48:25.169Z</time></trkpt><trkpt lat="45.6300855" lon="11.4149748"><ele>89.0</ele><time>2026-03-31T15:48:26.168Z</time></trkpt><trkpt lat="45.6300596" lon="11.4148837"><ele>88.99999999999999</ele><time>2026-03-31T15:48:27.168Z</time></trkpt><trkpt lat="45.6300048" lon="11.4148044"><ele>89.0</ele><time>2026-03-31T15:48:28.168Z</time></trkpt><trkpt lat="45.6299661" lon="11.4147263"><ele>89.0</ele><time>2026-03-31T15:48:29.168Z</time></trkpt><trkpt lat="45.6299234" lon="11.4146494"><ele>89.0</ele><time>2026-03-31T15:48:30.168Z</time></trkpt><trkpt lat="45.6298803" lon="11.4145681"><ele>89.0</ele><time>2026-03-31T15:48:31.168Z</time></trkpt><trkpt lat="45.6298382" lon="11.4144899"><ele>88.99999999999999</ele><time>2026-03-31T15:48:32.167Z</time></trkpt><trkpt lat="45.6297885" lon="11.4144234"><ele>89.0</ele><time>2026-03-31T15:48:33.167Z</time></trkpt><trkpt lat="45.6297344" lon="11.4142825"><ele>88.71428571428571</ele><time>2026-03-31T15:48:35.168Z</time></trkpt><trkpt lat="45.6296968" lon="11.4142081"><ele>88.42857142857143</ele><time>2026-03-31T15:48:36.168Z</time></trkpt><trkpt lat="45.6296662" lon="11.414123"><ele>88.14285714285714</ele><time>2026-03-31T15:48:37.168Z</time></trkpt><trkpt lat="45.6296124" lon="11.4140413"><ele>87.85714285714286</ele><time>2026-03-31T15:48:38.168Z</time></trkpt><trkpt lat="45.62956" lon="11.4139522"><ele>87.57142857142857</ele><time>2026-03-31T15:48:39.168Z</time></trkpt><trkpt lat="45.6295171" lon="11.4138611"><ele>87.28571428571428</ele><time>2026-03-31T15:48:40.168Z</time></trkpt><trkpt lat="45.6294716" lon="11.4137926"><ele>87.0</ele><time>2026-03-31T15:48:41.168Z</time></trkpt><trkpt lat="45.6294197" lon="11.4137214"><ele>87.0</ele><time>2026-03-31T15:48:42.169Z</time></trkpt><trkpt lat="45.6293723" lon="11.4136386"><ele>87.0</ele><time>2026-03-31T15:48:43.168Z</time></trkpt><trkpt lat="45.6293246" lon="11.4135625"><ele>87.0</ele><time>2026-03-31T15:48:44.168Z</time></trkpt><trkpt lat="45.6292819" lon="11.4134863"><ele>87.0</ele><time>2026-03-31T15:48:45.168Z</time></trkpt><trkpt lat="45.6292258" lon="11.4133991"><ele>87.0</ele><time>2026-03-31T15:48:46.168Z</time></trkpt><trkpt lat="45.6291674" lon="11.4132437"><ele>87.0</ele><time>2026-03-31T15:48:48.167Z</time></trkpt><trkpt lat="45.6291171" lon="11.4131685"><ele>87.0</ele><time>2026-03-31T15:48:49.168Z</time></trkpt><trkpt lat="45.629074" lon="11.4130904"><ele>87.0</ele><time>2026-03-31T15:48:50.168Z</time></trkpt><trkpt lat="45.6290327" lon="11.4130172"><ele>87.0</ele><time>2026-03-31T15:48:51.168Z</time></trkpt><trkpt lat="45.6289864" lon="11.4129173"><ele>87.0</ele><time>2026-03-31T15:48:52.168Z</time></trkpt><trkpt lat="45.6289413" lon="11.4128489"><ele>87.0</ele><time>2026-03-31T15:48:53.168Z</time></trkpt><trkpt lat="45.6288755" lon="11.4127743"><ele>87.0</ele><time>2026-03-31T15:48:54.168Z</time></trkpt><trkpt lat="45.6288265" lon="11.4126907"><ele>87.0</ele><time>2026-03-31T15:48:55.167Z</time></trkpt><trkpt lat="45.628769" lon="11.4125324"><ele>86.66666666666667</ele><time>2026-03-31T15:48:57.168Z</time></trkpt><trkpt lat="45.6287343" lon="11.4123816"><ele>86.33333333333333</ele><time>2026-03-31T15:48:59.167Z</time></trkpt><trkpt lat="45.6287037" lon="11.4122975"><ele>86.0</ele><time>2026-03-31T15:49:00.169Z</time></trkpt><trkpt lat="45.6286555" lon="11.4122169"><ele>85.66666666666666</ele><time>2026-03-31T15:49:01.168Z</time></trkpt><trkpt lat="45.6286182" lon="11.4121262"><ele>85.33333333333333</ele><time>2026-03-31T15:49:02.167Z</time></trkpt><trkpt lat="45.6286032" lon="11.4120367"><ele>85.0</ele><time>2026-03-31T15:49:03.168Z</time></trkpt><trkpt lat="45.6285683" lon="11.4119554"><ele>85.0</ele><time>2026-03-31T15:49:04.168Z</time></trkpt><trkpt lat="45.6285338" lon="11.4117697"><ele>85.0</ele><time>2026-03-31T15:49:06.168Z</time></trkpt><trkpt lat="45.6284844" lon="11.4115905"><ele>85.0</ele><time>2026-03-31T15:49:08.168Z</time></trkpt><trkpt lat="45.628456" lon="11.4114967"><ele>85.0</ele><time>2026-03-31T15:49:09.168Z</time></trkpt><trkpt lat="45.628427" lon="11.4113829"><ele>85.0</ele><time>2026-03-31T15:49:10.169Z</time></trkpt><trkpt lat="45.6283833" lon="11.4112407"><ele>85.14285714285715</ele><time>2026-03-31T15:49:12.169Z</time></trkpt><trkpt lat="45.6283707" lon="11.4111488"><ele>85.28571428571428</ele><time>2026-03-31T15:49:13.168Z</time></trkpt><trkpt lat="45.6283129" lon="11.4110599"><ele>85.42857142857143</ele><time>2026-03-31T15:49:14.168Z</time></trkpt><trkpt lat="45.6282967" lon="11.4109697"><ele>85.57142857142858</ele><time>2026-03-31T15:49:15.168Z</time></trkpt><trkpt lat="45.6282806" lon="11.410849"><ele>85.71428571428572</ele><time>2026-03-31T15:49:16.168Z</time></trkpt><trkpt lat="45.6282653" lon="11.4107605"><ele>85.85714285714286</ele><time>2026-03-31T15:49:17.168Z</time></trkpt><trkpt lat="45.628242" lon="11.4106735"><ele>86.0</ele><time>2026-03-31T15:49:18.169Z</time></trkpt><trkpt lat="45.6282294" lon="11.4105736"><ele>86.33333333333334</ele><time>2026-03-31T15:49:19.169Z</time></trkpt><trkpt lat="45.6282073" lon="11.4104821"><ele>86.66666666666667</ele><time>2026-03-31T15:49:20.167Z</time></trkpt><trkpt lat="45.6281922" lon="11.4103831"><ele>87.0</ele><time>2026-03-31T15:49:21.168Z</time></trkpt><trkpt lat="45.6281872" lon="11.4102709"><ele>87.33333333333333</ele><time>2026-03-31T15:49:22.167Z</time></trkpt><trkpt lat="45.6282017" lon="11.4101134"><ele>87.66666666666666</ele><time>2026-03-31T15:49:24.169Z</time></trkpt><trkpt lat="45.6282205" lon="11.4100077"><ele>88.0</ele><time>2026-03-31T15:49:25.167Z</time></trkpt><trkpt lat="45.6282671" lon="11.4098395"><ele>88.0</ele><time>2026-03-31T15:49:27.167Z</time></trkpt><trkpt lat="45.6283031" lon="11.4096907"><ele>88.0</ele><time>2026-03-31T15:49:29.167Z</time></trkpt><trkpt lat="45.6283438" lon="11.4095139"><ele>88.0</ele><time>2026-03-31T15:49:31.169Z</time></trkpt><trkpt lat="45.6283685" lon="11.4094139"><ele>88.0</ele><time>2026-03-31T15:49:32.168Z</time></trkpt><trkpt lat="45.6283983" lon="11.4092258"><ele>88.0</ele><time>2026-03-31T15:49:34.167Z</time></trkpt><trkpt lat="45.6284304" lon="11.4090637"><ele>88.2</ele><time>2026-03-31T15:49:36.168Z</time></trkpt><trkpt lat="45.6284386" lon="11.4089656"><ele>88.4</ele><time>2026-03-31T15:49:37.169Z</time></trkpt><trkpt lat="45.6284341" lon="11.4088742"><ele>88.60000000000001</ele><time>2026-03-31T15:49:38.169Z</time></trkpt><trkpt lat="45.6284254" lon="11.4087012"><ele>88.80000000000001</ele><time>2026-03-31T15:49:40.167Z</time></trkpt><trkpt lat="45.6284112" lon="11.4085437"><ele>89.0</ele><time>2026-03-31T15:49:42.168Z</time></trkpt><trkpt lat="45.6283762" lon="11.4083888"><ele>89.0</ele><time>2026-03-31T15:49:44.169Z</time></trkpt><trkpt lat="45.6283548" lon="11.4082147"><ele>89.0</ele><time>2026-03-31T15:49:46.168Z</time></trkpt><trkpt lat="45.6283394" lon="11.4081273"><ele>89.0</ele><time>2026-03-31T15:49:47.168Z</time></trkpt><trkpt lat="45.6282839" lon="11.4079864"><ele>89.0</ele><time>2026-03-31T15:49:49.168Z</time></trkpt><trkpt lat="45.6282509" lon="11.4079013"><ele>89.0</ele><time>2026-03-31T15:49:50.168Z</time></trkpt><trkpt lat="45.628234" lon="11.4077353"><ele>89.2</ele><time>2026-03-31T15:49:52.168Z</time></trkpt><trkpt lat="45.6282033" lon="11.4075934"><ele>89.4</ele><time>2026-03-31T15:49:54.168Z</time></trkpt><trkpt lat="45.6281737" lon="11.4074556"><ele>89.6</ele><time>2026-03-31T15:49:56.168Z</time></trkpt><trkpt lat="45.6281471" lon="11.4072801"><ele>89.8</ele><time>2026-03-31T15:49:58.168Z</time></trkpt><trkpt lat="45.6281343" lon="11.4071292"><ele>90.0</ele><time>2026-03-31T15:50:00.168Z</time></trkpt><trkpt lat="45.6281244" lon="11.4070101"><ele>90.33333333333333</ele><time>2026-03-31T15:50:02.169Z</time></trkpt><trkpt lat="45.6281227" lon="11.4068961"><ele>90.66666666666667</ele><time>2026-03-31T15:50:04.169Z</time></trkpt><trkpt lat="45.6281164" lon="11.4068016"><ele>91.0</ele><time>2026-03-31T15:50:06.168Z</time></trkpt><trkpt lat="45.6281138" lon="11.406711"><ele>91.33333333333334</ele><time>2026-03-31T15:50:08.168Z</time></trkpt><trkpt lat="45.6281222" lon="11.4066097"><ele>91.66666666666667</ele><time>2026-03-31T15:50:10.168Z</time></trkpt><trkpt lat="45.6281049" lon="11.4064761"><ele>92.0</ele><time>2026-03-31T15:50:13.167Z</time></trkpt><trkpt lat="45.6280598" lon="11.4063833"><ele>92.19999999999999</ele><time>2026-03-31T15:50:15.167Z</time></trkpt><trkpt lat="45.6279739" lon="11.4062622"><ele>92.4</ele><time>2026-03-31T15:50:17.167Z</time></trkpt><trkpt lat="45.6278921" lon="11.4061403"><ele>92.6</ele><time>2026-03-31T15:50:19.169Z</time></trkpt><trkpt lat="45.627808" lon="11.4060186"><ele>92.80000000000001</ele><time>2026-03-31T15:50:21.168Z</time></trkpt><trkpt lat="45.6277556" lon="11.4059616"><ele>93.0</ele><time>2026-03-31T15:50:22.167Z</time></trkpt><trkpt lat="45.6276679" lon="11.4058319"><ele>92.60000000000001</ele><time>2026-03-31T15:50:24.167Z</time></trkpt><trkpt lat="45.6275854" lon="11.4057221"><ele>92.2</ele><time>2026-03-31T15:50:26.167Z</time></trkpt><trkpt lat="45.6274742" lon="11.4056239"><ele>91.8</ele><time>2026-03-31T15:50:28.168Z</time></trkpt><trkpt lat="45.6273984" lon="11.4055398"><ele>91.4</ele><time>2026-03-31T15:50:30.168Z</time></trkpt><trkpt lat="45.627359" lon="11.4054651"><ele>91.0</ele><time>2026-03-31T15:50:32.168Z</time></trkpt><trkpt lat="45.6272894" lon="11.4053829"><ele>91.0</ele><time>2026-03-31T15:50:34.167Z</time></trkpt><trkpt lat="45.6272432" lon="11.4053154"><ele>91.0</ele><time>2026-03-31T15:50:36.168Z</time></trkpt><trkpt lat="45.6271929" lon="11.4052542"><ele>91.0</ele><time>2026-03-31T15:50:38.167Z</time></trkpt><trkpt lat="45.6271429" lon="11.4051782"><ele>91.0</ele><time>2026-03-31T15:50:40.168Z</time></trkpt><trkpt lat="45.627088" lon="11.405107"><ele>91.0</ele><time>2026-03-31T15:50:42.167Z</time></trkpt><trkpt lat="45.6270404" lon="11.4050418"><ele>91.0</ele><time>2026-03-31T15:50:44.168Z</time></trkpt><trkpt lat="45.6269709" lon="11.4049677"><ele>91.0</ele><time>2026-03-31T15:50:47.167Z</time></trkpt><trkpt lat="45.6269194" lon="11.4048986"><ele>91.83333333333333</ele><time>2026-03-31T15:50:50.167Z</time></trkpt><trkpt lat="45.6268668" lon="11.4048184"><ele>92.66666666666666</ele><time>2026-03-31T15:50:53.169Z</time></trkpt><trkpt lat="45.6268021" lon="11.4047362"><ele>93.5</ele><time>2026-03-31T15:50:56.168Z</time></trkpt><trkpt lat="45.6267381" lon="11.4046541"><ele>94.33333333333333</ele><time>2026-03-31T15:50:59.167Z</time></trkpt><trkpt lat="45.6266929" lon="11.4045509"><ele>95.16666666666667</ele><time>2026-03-31T15:51:02.168Z</time></trkpt><trkpt lat="45.6266382" lon="11.4044544"><ele>96.0</ele><time>2026-03-31T15:51:05.169Z</time></trkpt><trkpt lat="45.626575" lon="11.4043691"><ele>97.28571428571428</ele><time>2026-03-31T15:51:08.168Z</time></trkpt><trkpt lat="45.6265061" lon="11.4042922"><ele>98.57142857142857</ele><time>2026-03-31T15:51:11.167Z</time></trkpt><trkpt lat="45.6264497" lon="11.4042133"><ele>99.85714285714286</ele><time>2026-03-31T15:51:14.167Z</time></trkpt><trkpt lat="45.6264356" lon="11.4041066"><ele>101.14285714285714</ele><time>2026-03-31T15:51:18.167Z</time></trkpt><trkpt lat="45.6264577" lon="11.4040217"><ele>102.42857142857143</ele><time>2026-03-31T15:51:26.169Z</time></trkpt><trkpt lat="45.6264854" lon="11.4039305"><ele>103.71428571428571</ele><time>2026-03-31T15:51:31.169Z</time></trkpt><trkpt lat="45.6265234" lon="11.4038504"><ele>105.0</ele><time>2026-03-31T15:51:35.167Z</time></trkpt><trkpt lat="45.6265611" lon="11.403776"><ele>105.5</ele><time>2026-03-31T15:51:38.169Z</time></trkpt><trkpt lat="45.6265972" lon="11.4036693"><ele>106.0</ele><time>2026-03-31T15:51:42.169Z</time></trkpt><trkpt lat="45.6266327" lon="11.4035774"><ele>106.5</ele><time>2026-03-31T15:51:45.167Z</time></trkpt><trkpt lat="45.6266518" lon="11.403479"><ele>107.0</ele><time>2026-03-31T15:51:48.168Z</time></trkpt><trkpt lat="45.6266671" lon="11.4033822"><ele>107.5</ele><time>2026-03-31T15:51:51.168Z</time></trkpt><trkpt lat="45.6266845" lon="11.4032767"><ele>108.0</ele><time>2026-03-31T15:51:54.167Z</time></trkpt><trkpt lat="45.6267014" lon="11.4031683"><ele>108.0</ele><time>2026-03-31T15:51:57.168Z</time></trkpt><trkpt lat="45.6267166" lon="11.4030647"><ele>108.0</ele><time>2026-03-31T15:52:00.168Z</time></trkpt><trkpt lat="45.6267374" lon="11.4029729"><ele>108.0</ele><time>2026-03-31T15:52:03.167Z</time></trkpt><trkpt lat="45.6267334" lon="11.4028767"><ele>108.0</ele><time>2026-03-31T15:52:07.169Z</time></trkpt><trkpt lat="45.62673" lon="11.4027727"><ele>108.0</ele><time>2026-03-31T15:52:12.168Z</time></trkpt><trkpt lat="45.6267374" lon="11.4026833"><ele>108.0</ele><time>2026-03-31T15:52:16.169Z</time></trkpt><trkpt lat="45.6267267" lon="11.4025676"><ele>108.0</ele><time>2026-03-31T15:52:20.169Z</time></trkpt><trkpt lat="45.6267133" lon="11.4024656"><ele>108.66666666666667</ele><time>2026-03-31T15:52:24.169Z</time></trkpt><trkpt lat="45.6266944" lon="11.4023589"><ele>109.33333333333334</ele><time>2026-03-31T15:52:31.17Z</time></trkpt><trkpt lat="45.6267099" lon="11.402254"><ele>110.0</ele><time>2026-03-31T15:52:35.169Z</time></trkpt><trkpt lat="45.6267287" lon="11.4021389"><ele>110.66666666666667</ele><time>2026-03-31T15:52:39.169Z</time></trkpt><trkpt lat="45.6267423" lon="11.4020324"><ele>111.33333333333334</ele><time>2026-03-31T15:52:43.168Z</time></trkpt><trkpt lat="45.6267451" lon="11.4019167"><ele>112.0</ele><time>2026-03-31T15:52:47.169Z</time></trkpt><trkpt lat="45.6267143" lon="11.4018302"><ele>112.71428571428572</ele><time>2026-03-31T15:52:51.169Z</time></trkpt><trkpt lat="45.6266448" lon="11.4018034"><ele>113.42857142857143</ele><time>2026-03-31T15:53:00.169Z</time></trkpt><trkpt lat="45.6265727" lon="11.401811"><ele>114.14285714285714</ele><time>2026-03-31T15:53:07.168Z</time></trkpt><trkpt lat="45.6265068" lon="11.4018544"><ele>114.85714285714286</ele><time>2026-03-31T15:53:13.168Z</time></trkpt><trkpt lat="45.6264459" lon="11.4018963"><ele>115.57142857142858</ele><time>2026-03-31T15:53:19.168Z</time></trkpt><trkpt lat="45.6263766" lon="11.4019341"><ele>116.28571428571429</ele><time>2026-03-31T15:53:24.168Z</time></trkpt><trkpt lat="45.626308" lon="11.4019509"><ele>117.0</ele><time>2026-03-31T15:53:29.169Z</time></trkpt><trkpt lat="45.6262439" lon="11.4019627"><ele>117.0</ele><time>2026-03-31T15:53:34.169Z</time></trkpt><trkpt lat="45.6261802" lon="11.4019762"><ele>117.00000000000001</ele><time>2026-03-31T15:53:40.169Z</time></trkpt><trkpt lat="45.6261153" lon="11.4019888"><ele>117.0</ele><time>2026-03-31T15:53:45.169Z</time></trkpt><trkpt lat="45.6260463" lon="11.4020116"><ele>117.0</ele><time>2026-03-31T15:53:50.169Z</time></trkpt><trkpt lat="45.625977" lon="11.4020178"><ele>117.00000000000001</ele><time>2026-03-31T15:53:56.169Z</time></trkpt><trkpt lat="45.6259131" lon="11.4020061"><ele>117.0</ele><time>2026-03-31T15:54:00.168Z</time></trkpt><trkpt lat="45.6258542" lon="11.4019627"><ele>117.0</ele><time>2026-03-31T15:54:06.168Z</time></trkpt><trkpt lat="45.6258531" lon="11.4018629"><ele>119.42857142857143</ele><time>2026-03-31T15:54:14.168Z</time></trkpt><trkpt lat="45.62584" lon="11.4017716"><ele>121.85714285714286</ele><time>2026-03-31T15:54:20.169Z</time></trkpt><trkpt lat="45.6258402" lon="11.4016727"><ele>124.28571428571429</ele><time>2026-03-31T15:54:27.169Z</time></trkpt><trkpt lat="45.6258381" lon="11.4015802"><ele>126.71428571428572</ele><time>2026-03-31T15:54:34.169Z</time></trkpt><trkpt lat="45.6258352" lon="11.4014853"><ele>129.14285714285714</ele><time>2026-03-31T15:54:39.168Z</time></trkpt><trkpt lat="45.6258688" lon="11.4013987"><ele>131.57142857142858</ele><time>2026-03-31T15:54:43.169Z</time></trkpt><trkpt lat="45.6258913" lon="11.4013074"><ele>134.0</ele><time>2026-03-31T15:54:47.168Z</time></trkpt><trkpt lat="45.6259103" lon="11.4012062"><ele>135.28571428571428</ele><time>2026-03-31T15:54:54.168Z</time></trkpt><trkpt lat="45.6258896" lon="11.4011149"><ele>136.57142857142856</ele><time>2026-03-31T15:54:59.17Z</time></trkpt><trkpt lat="45.6258824" lon="11.4010229"><ele>137.85714285714283</ele><time>2026-03-31T15:55:05.169Z</time></trkpt><trkpt lat="45.6258634" lon="11.4009258"><ele>139.14285714285714</ele><time>2026-03-31T15:55:11.17Z</time></trkpt><trkpt lat="45.625835" lon="11.4008433"><ele>140.42857142857142</ele><time>2026-03-31T15:55:16.168Z</time></trkpt><trkpt lat="45.6258368" lon="11.4007463"><ele>141.7142857142857</ele><time>2026-03-31T15:55:21.17Z</time></trkpt><trkpt lat="45.6258059" lon="11.4006575"><ele>143.0</ele><time>2026-03-31T15:55:26.169Z</time></trkpt><trkpt lat="45.6257681" lon="11.4005803"><ele>142.99999999999997</ele><time>2026-03-31T15:55:31.169Z</time></trkpt><trkpt lat="45.6257129" lon="11.4005053"><ele>143.0</ele><time>2026-03-31T15:55:37.169Z</time></trkpt><trkpt lat="45.6256821" lon="11.4004149"><ele>143.0</ele><time>2026-03-31T15:55:43.169Z</time></trkpt><trkpt lat="45.6256288" lon="11.4003552"><ele>143.0</ele><time>2026-03-31T15:55:49.168Z</time></trkpt><trkpt lat="45.6255618" lon="11.4003347"><ele>143.0</ele><time>2026-03-31T15:55:54.169Z</time></trkpt><trkpt lat="45.6254867" lon="11.4003316"><ele>142.99999999999997</ele><time>2026-03-31T15:56:00.17Z</time></trkpt><trkpt lat="45.6254213" lon="11.4003404"><ele>143.0</ele><time>2026-03-31T15:56:05.169Z</time></trkpt><trkpt lat="45.6253554" lon="11.4003436"><ele>145.42857142857142</ele><time>2026-03-31T15:56:10.169Z</time></trkpt><trkpt lat="45.6252812" lon="11.4003301"><ele>147.85714285714286</ele><time>2026-03-31T15:56:15.169Z</time></trkpt><trkpt lat="45.6252089" lon="11.4003272"><ele>150.28571428571428</ele><time>2026-03-31T15:56:22.169Z</time></trkpt><trkpt lat="45.6251385" lon="11.4003134"><ele>152.71428571428572</ele><time>2026-03-31T15:56:26.169Z</time></trkpt><trkpt lat="45.6250724" lon="11.4003056"><ele>155.14285714285714</ele><time>2026-03-31T15:56:29.168Z</time></trkpt><trkpt lat="45.6249933" lon="11.4003012"><ele>157.57142857142856</ele><time>2026-03-31T15:56:32.169Z</time></trkpt><trkpt lat="45.624919" lon="11.4003024"><ele>160.0</ele><time>2026-03-31T15:56:36.169Z</time></trkpt><trkpt lat="45.6248515" lon="11.400306"><ele>160.0</ele><time>2026-03-31T15:56:40.169Z</time></trkpt><trkpt lat="45.6247838" lon="11.4003131"><ele>160.0</ele><time>2026-03-31T15:56:43.169Z</time></trkpt><trkpt lat="45.6247109" lon="11.4003171"><ele>160.0</ele><time>2026-03-31T15:56:46.169Z</time></trkpt><trkpt lat="45.6246439" lon="11.4003192"><ele>160.0</ele><time>2026-03-31T15:56:49.17Z</time></trkpt><trkpt lat="45.6245741" lon="11.4003455"><ele>160.0</ele><time>2026-03-31T15:56:53.169Z</time></trkpt><trkpt lat="45.6245097" lon="11.400367"><ele>160.0</ele><time>2026-03-31T15:56:57.169Z</time></trkpt><trkpt lat="45.6244441" lon="11.4003744"><ele>160.0</ele><time>2026-03-31T15:57:01.17Z</time></trkpt><trkpt lat="45.6243859" lon="11.4004148"><ele>160.14285714285714</ele><time>2026-03-31T15:57:06.169Z</time></trkpt><trkpt lat="45.6243284" lon="11.4004629"><ele>160.28571428571428</ele><time>2026-03-31T15:57:11.169Z</time></trkpt><trkpt lat="45.624276" lon="11.4005145"><ele>160.42857142857144</ele><time>2026-03-31T15:57:17.168Z</time></trkpt><trkpt lat="45.6242138" lon="11.4005391"><ele>160.57142857142856</ele><time>2026-03-31T15:57:23.168Z</time></trkpt><trkpt lat="45.6241505" lon="11.4005483"><ele>160.71428571428572</ele><time>2026-03-31T15:57:27.168Z</time></trkpt><trkpt lat="45.6240851" lon="11.4005565"><ele>160.85714285714286</ele><time>2026-03-31T15:57:31.168Z</time></trkpt><trkpt lat="45.6240113" lon="11.4005564"><ele>161.0</ele><time>2026-03-31T15:57:36.169Z</time></trkpt><trkpt lat="45.6239473" lon="11.4005564"><ele>161.0</ele><time>2026-03-31T15:57:44.17Z</time></trkpt><trkpt lat="45.6238768" lon="11.4006046"><ele>161.0</ele><time>2026-03-31T15:57:50.169Z</time></trkpt><trkpt lat="45.6238041" lon="11.4006111"><ele>161.0</ele><time>2026-03-31T15:57:54.169Z</time></trkpt><trkpt lat="45.6237357" lon="11.4006069"><ele>161.0</ele><time>2026-03-31T15:57:58.169Z</time></trkpt><trkpt lat="45.6236577" lon="11.400594"><ele>161.0</ele><time>2026-03-31T15:58:03.169Z</time></trkpt><trkpt lat="45.6235981" lon="11.4005581"><ele>161.0</ele><time>2026-03-31T15:58:06.168Z</time></trkpt><trkpt lat="45.6235314" lon="11.4005021"><ele>161.0</ele><time>2026-03-31T15:58:09.17Z</time></trkpt><trkpt lat="45.6234715" lon="11.4004529"><ele>163.85714285714286</ele><time>2026-03-31T15:58:13.169Z</time></trkpt><trkpt lat="45.6234075" lon="11.4004417"><ele>166.71428571428572</ele><time>2026-03-31T15:58:16.17Z</time></trkpt><trkpt lat="45.6233455" lon="11.4004253"><ele>169.57142857142856</ele><time>2026-03-31T15:58:19.17Z</time></trkpt><trkpt lat="45.6232802" lon="11.4003862"><ele>172.42857142857144</ele><time>2026-03-31T15:58:23.17Z</time></trkpt><trkpt lat="45.623278" lon="11.4002947"><ele>175.28571428571428</ele><time>2026-03-31T15:58:28.169Z</time></trkpt><trkpt lat="45.6233385" lon="11.4002567"><ele>178.14285714285714</ele><time>2026-03-31T15:58:37.169Z</time></trkpt><trkpt lat="45.6234129" lon="11.4002222"><ele>181.0</ele><time>2026-03-31T15:58:43.168Z</time></trkpt><trkpt lat="45.623472" lon="11.4001668"><ele>181.0</ele><time>2026-03-31T15:58:47.169Z</time></trkpt><trkpt lat="45.6235227" lon="11.4000968"><ele>181.0</ele><time>2026-03-31T15:58:51.168Z</time></trkpt><trkpt lat="45.6235779" lon="11.4000194"><ele>181.0</ele><time>2026-03-31T15:58:56.169Z</time></trkpt><trkpt lat="45.6236254" lon="11.3999594"><ele>181.0</ele><time>2026-03-31T15:59:00.17Z</time></trkpt><trkpt lat="45.623662" lon="11.399879"><ele>181.0</ele><time>2026-03-31T15:59:04.169Z</time></trkpt><trkpt lat="45.6236943" lon="11.3997959"><ele>181.0</ele><time>2026-03-31T15:59:08.169Z</time></trkpt><trkpt lat="45.6237351" lon="11.3997151"><ele>181.0</ele><time>2026-03-31T15:59:13.17Z</time></trkpt><trkpt lat="45.6237891" lon="11.3996374"><ele>181.85714285714286</ele><time>2026-03-31T15:59:19.169Z</time></trkpt><trkpt lat="45.6238524" lon="11.3995877"><ele>182.71428571428572</ele><time>2026-03-31T15:59:25.169Z</time></trkpt><trkpt lat="45.6239139" lon="11.3995404"><ele>183.57142857142856</ele><time>2026-03-31T15:59:32.169Z</time></trkpt><trkpt lat="45.6239549" lon="11.3994556"><ele>184.42857142857144</ele><time>2026-03-31T15:59:37.169Z</time></trkpt><trkpt lat="45.6239911" lon="11.3993637"><ele>185.2857142857143</ele><time>2026-03-31T15:59:42.169Z</time></trkpt><trkpt lat="45.6240286" lon="11.3992893"><ele>186.14285714285714</ele><time>2026-03-31T15:59:46.169Z</time></trkpt><trkpt lat="45.6240597" lon="11.3992078"><ele>187.0</ele><time>2026-03-31T15:59:50.168Z</time></trkpt><trkpt lat="45.6240986" lon="11.399126"><ele>187.0</ele><time>2026-03-31T15:59:55.169Z</time></trkpt><trkpt lat="45.6241345" lon="11.3990428"><ele>187.0</ele><time>2026-03-31T16:00:00.168Z</time></trkpt><trkpt lat="45.6241781" lon="11.3989719"><ele>187.0</ele><time>2026-03-31T16:00:06.169Z</time></trkpt><trkpt lat="45.6241992" lon="11.3988813"><ele>187.0</ele><time>2026-03-31T16:00:11.169Z</time></trkpt><trkpt lat="45.62423" lon="11.3987956"><ele>187.0</ele><time>2026-03-31T16:00:16.168Z</time></trkpt><trkpt lat="45.6242759" lon="11.3987042"><ele>187.0</ele><time>2026-03-31T16:00:21.17Z</time></trkpt><trkpt lat="45.6243297" lon="11.3986241"><ele>187.0</ele><time>2026-03-31T16:00:26.169Z</time></trkpt><trkpt lat="45.6243705" lon="11.398551"><ele>186.14285714285714</ele><time>2026-03-31T16:00:33.169Z</time></trkpt><trkpt lat="45.6243887" lon="11.3984642"><ele>185.2857142857143</ele><time>2026-03-31T16:00:39.169Z</time></trkpt><trkpt lat="45.6244369" lon="11.398384"><ele>184.42857142857144</ele><time>2026-03-31T16:00:45.169Z</time></trkpt><trkpt lat="45.6244756" lon="11.3983112"><ele>183.57142857142856</ele><time>2026-03-31T16:00:49.169Z</time></trkpt><trkpt lat="45.6245178" lon="11.3982271"><ele>182.71428571428572</ele><time>2026-03-31T16:00:54.17Z</time></trkpt><trkpt lat="45.6245454" lon="11.3981306"><ele>181.85714285714286</ele><time>2026-03-31T16:00:58.169Z</time></trkpt><trkpt lat="45.6245755" lon="11.3980345"><ele>181.0</ele><time>2026-03-31T16:01:02.17Z</time></trkpt><trkpt lat="45.6245875" lon="11.3979312"><ele>182.85714285714286</ele><time>2026-03-31T16:01:06.169Z</time></trkpt><trkpt lat="45.6245951" lon="11.3978376"><ele>184.71428571428572</ele><time>2026-03-31T16:01:10.17Z</time></trkpt><trkpt lat="45.6246104" lon="11.3977496"><ele>186.57142857142856</ele><time>2026-03-31T16:01:15.169Z</time></trkpt><trkpt lat="45.6246185" lon="11.3976438"><ele>188.42857142857144</ele><time>2026-03-31T16:01:20.169Z</time></trkpt><trkpt lat="45.6246433" lon="11.3975321"><ele>190.2857142857143</ele><time>2026-03-31T16:01:25.169Z</time></trkpt><trkpt lat="45.6246481" lon="11.3974359"><ele>192.14285714285714</ele><time>2026-03-31T16:01:28.169Z</time></trkpt><trkpt lat="45.6246562" lon="11.397327"><ele>194.0</ele><time>2026-03-31T16:01:31.169Z</time></trkpt><trkpt lat="45.6246721" lon="11.3972214"><ele>195.57142857142856</ele><time>2026-03-31T16:01:34.169Z</time></trkpt><trkpt lat="45.6246804" lon="11.3971296"><ele>197.14285714285717</ele><time>2026-03-31T16:01:37.17Z</time></trkpt><trkpt lat="45.6247128" lon="11.3970458"><ele>198.71428571428572</ele><time>2026-03-31T16:01:40.168Z</time></trkpt><trkpt lat="45.624727" lon="11.3969391"><ele>200.28571428571428</ele><time>2026-03-31T16:01:44.17Z</time></trkpt><trkpt lat="45.6247436" lon="11.3968475"><ele>201.85714285714283</ele><time>2026-03-31T16:01:49.169Z</time></trkpt><trkpt lat="45.6247391" lon="11.3967465"><ele>203.42857142857144</ele><time>2026-03-31T16:01:53.169Z</time></trkpt><trkpt lat="45.6247543" lon="11.3966495"><ele>205.0</ele><time>2026-03-31T16:01:57.17Z</time></trkpt><trkpt lat="45.6247483" lon="11.3965469"><ele>204.99999999999997</ele><time>2026-03-31T16:02:01.17Z</time></trkpt><trkpt lat="45.6247537" lon="11.3964432"><ele>205.0</ele><time>2026-03-31T16:02:04.17Z</time></trkpt><trkpt lat="45.6247772" lon="11.396326"><ele>205.0</ele><time>2026-03-31T16:02:07.169Z</time></trkpt><trkpt lat="45.6247981" lon="11.396226"><ele>205.0</ele><time>2026-03-31T16:02:10.17Z</time></trkpt><trkpt lat="45.6248216" lon="11.3961302"><ele>204.99999999999997</ele><time>2026-03-31T16:02:14.17Z</time></trkpt><trkpt lat="45.6248135" lon="11.3960228"><ele>205.0</ele><time>2026-03-31T16:02:19.168Z</time></trkpt><trkpt lat="45.624812" lon="11.3959176"><ele>205.99999999999997</ele><time>2026-03-31T16:02:23.169Z</time></trkpt><trkpt lat="45.6248249" lon="11.3958034"><ele>207.0</ele><time>2026-03-31T16:02:27.168Z</time></trkpt><trkpt lat="45.6248469" lon="11.3957043"><ele>208.0</ele><time>2026-03-31T16:02:30.169Z</time></trkpt><trkpt lat="45.6248724" lon="11.3955723"><ele>209.0</ele><time>2026-03-31T16:02:33.169Z</time></trkpt><trkpt lat="45.6248831" lon="11.3954835"><ele>209.99999999999997</ele><time>2026-03-31T16:02:35.168Z</time></trkpt><trkpt lat="45.6248869" lon="11.3953669"><ele>211.0</ele><time>2026-03-31T16:02:38.169Z</time></trkpt><trkpt lat="45.6248794" lon="11.3952581"><ele>211.42857142857144</ele><time>2026-03-31T16:02:41.169Z</time></trkpt><trkpt lat="45.6248723" lon="11.3951487"><ele>211.85714285714286</ele><time>2026-03-31T16:02:44.17Z</time></trkpt><trkpt lat="45.6248799" lon="11.3950523"><ele>212.28571428571428</ele><time>2026-03-31T16:02:46.17Z</time></trkpt><trkpt lat="45.6249084" lon="11.3949254"><ele>212.71428571428572</ele><time>2026-03-31T16:02:48.169Z</time></trkpt><trkpt lat="45.6249388" lon="11.3948429"><ele>213.14285714285714</ele><time>2026-03-31T16:02:51.17Z</time></trkpt><trkpt lat="45.6249012" lon="11.3947485"><ele>213.57142857142858</ele><time>2026-03-31T16:02:56.17Z</time></trkpt><trkpt lat="45.6248867" lon="11.3946538"><ele>214.0</ele><time>2026-03-31T16:02:59.169Z</time></trkpt><trkpt lat="45.6248796" lon="11.3945575"><ele>214.75</ele><time>2026-03-31T16:03:02.169Z</time></trkpt><trkpt lat="45.6248621" lon="11.3944434"><ele>215.5</ele><time>2026-03-31T16:03:10.169Z</time></trkpt><trkpt lat="45.6248631" lon="11.3943305"><ele>216.25</ele><time>2026-03-31T16:03:12.17Z</time></trkpt><trkpt lat="45.6248899" lon="11.3941865"><ele>217.0</ele><time>2026-03-31T16:03:14.169Z</time></trkpt><trkpt lat="45.6249237" lon="11.3937944"><ele>218.0</ele><time>2026-03-31T16:03:16.169Z</time></trkpt><trkpt lat="45.6249501" lon="11.3937066"><ele>219.0</ele><time>2026-03-31T16:03:23.169Z</time></trkpt><trkpt lat="45.6249723" lon="11.3936221"><ele>220.0</ele><time>2026-03-31T16:03:28.169Z</time></trkpt><trkpt lat="45.6249774" lon="11.3934985"><ele>221.0</ele><time>2026-03-31T16:03:30.169Z</time></trkpt><trkpt lat="45.625002" lon="11.393389"><ele>222.0</ele><time>2026-03-31T16:03:33.17Z</time></trkpt><trkpt lat="45.62505" lon="11.393318"><ele>223.0</ele><time>2026-03-31T16:03:36.169Z</time></trkpt><trkpt lat="45.6251055" lon="11.3932562"><ele>224.0</ele><time>2026-03-31T16:03:39.17Z</time></trkpt><trkpt lat="45.6251816" lon="11.3931987"><ele>224.0</ele><time>2026-03-31T16:03:42.169Z</time></trkpt><trkpt lat="45.6252363" lon="11.3931185"><ele>223.99999999999997</ele><time>2026-03-31T16:03:44.169Z</time></trkpt><trkpt lat="45.6253224" lon="11.3929586"><ele>223.99999999999997</ele><time>2026-03-31T16:03:46.17Z</time></trkpt><trkpt lat="45.6253663" lon="11.3928393"><ele>224.0</ele><time>2026-03-31T16:03:48.169Z</time></trkpt><trkpt lat="45.6253875" lon="11.392739"><ele>224.0</ele><time>2026-03-31T16:03:50.169Z</time></trkpt><trkpt lat="45.6253978" lon="11.3926086"><ele>224.33333333333334</ele><time>2026-03-31T16:03:52.169Z</time></trkpt><trkpt lat="45.6253994" lon="11.3924861"><ele>224.66666666666669</ele><time>2026-03-31T16:03:54.169Z</time></trkpt><trkpt lat="45.6254131" lon="11.3923961"><ele>225.0</ele><time>2026-03-31T16:03:56.17Z</time></trkpt><trkpt lat="45.6254432" lon="11.3922739"><ele>225.33333333333331</ele><time>2026-03-31T16:03:59.168Z</time></trkpt><trkpt lat="45.6254675" lon="11.3921895"><ele>225.66666666666666</ele><time>2026-03-31T16:04:01.168Z</time></trkpt><trkpt lat="45.6254905" lon="11.3920624"><ele>226.0</ele><time>2026-03-31T16:04:04.168Z</time></trkpt><trkpt lat="45.6255045" lon="11.3919641"><ele>226.0</ele><time>2026-03-31T16:04:07.169Z</time></trkpt><trkpt lat="45.6255628" lon="11.3919114"><ele>226.0</ele><time>2026-03-31T16:04:11.168Z</time></trkpt><trkpt lat="45.62563" lon="11.3918758"><ele>226.0</ele><time>2026-03-31T16:04:14.169Z</time></trkpt><trkpt lat="45.6257016" lon="11.3918288"><ele>226.0</ele><time>2026-03-31T16:04:16.17Z</time></trkpt><trkpt lat="45.6257696" lon="11.3917778"><ele>226.0</ele><time>2026-03-31T16:04:19.17Z</time></trkpt><trkpt lat="45.6258284" lon="11.3917393"><ele>226.0</ele><time>2026-03-31T16:04:22.168Z</time></trkpt><trkpt lat="45.6258919" lon="11.3916729"><ele>226.0</ele><time>2026-03-31T16:04:25.169Z</time></trkpt><trkpt lat="45.6259905" lon="11.3916369"><ele>226.0</ele><time>2026-03-31T16:04:32.169Z</time></trkpt><trkpt lat="45.6261274" lon="11.391631"><ele>226.00000000000003</ele><time>2026-03-31T16:04:39.169Z</time></trkpt><trkpt lat="45.6262006" lon="11.3916531"><ele>226.00000000000003</ele><time>2026-03-31T16:04:43.17Z</time></trkpt><trkpt lat="45.6263189" lon="11.3916535"><ele>226.0</ele><time>2026-03-31T16:04:48.169Z</time></trkpt><trkpt lat="45.6264231" lon="11.3916558"><ele>226.0</ele><time>2026-03-31T16:04:52.168Z</time></trkpt><trkpt lat="45.6264953" lon="11.391693"><ele>225.33333333333331</ele><time>2026-03-31T16:04:56.169Z</time></trkpt><trkpt lat="45.62658" lon="11.3916708"><ele>224.66666666666666</ele><time>2026-03-31T16:05:00.169Z</time></trkpt><trkpt lat="45.6266504" lon="11.3916307"><ele>224.0</ele><time>2026-03-31T16:05:03.169Z</time></trkpt><trkpt lat="45.6267122" lon="11.3915808"><ele>223.33333333333331</ele><time>2026-03-31T16:05:06.169Z</time></trkpt><trkpt lat="45.6267742" lon="11.3915379"><ele>222.66666666666666</ele><time>2026-03-31T16:05:09.169Z</time></trkpt><trkpt lat="45.6268499" lon="11.3915154"><ele>222.0</ele><time>2026-03-31T16:05:13.169Z</time></trkpt><trkpt lat="45.6269172" lon="11.3914777"><ele>222.71428571428572</ele><time>2026-03-31T16:05:17.169Z</time></trkpt><trkpt lat="45.6269841" lon="11.3914705"><ele>223.42857142857144</ele><time>2026-03-31T16:05:21.169Z</time></trkpt><trkpt lat="45.6270624" lon="11.3914753"><ele>224.14285714285717</ele><time>2026-03-31T16:05:25.17Z</time></trkpt><trkpt lat="45.6271345" lon="11.3914939"><ele>224.85714285714286</ele><time>2026-03-31T16:05:30.168Z</time></trkpt><trkpt lat="45.6272109" lon="11.3914981"><ele>225.5714285714286</ele><time>2026-03-31T16:05:35.17Z</time></trkpt><trkpt lat="45.6272816" lon="11.3914742"><ele>226.2857142857143</ele><time>2026-03-31T16:05:38.169Z</time></trkpt><trkpt lat="45.6273518" lon="11.391436"><ele>227.0</ele><time>2026-03-31T16:05:41.17Z</time></trkpt><trkpt lat="45.6274219" lon="11.3914076"><ele>227.0</ele><time>2026-03-31T16:05:44.169Z</time></trkpt><trkpt lat="45.6274982" lon="11.3913882"><ele>227.00000000000003</ele><time>2026-03-31T16:05:48.17Z</time></trkpt><trkpt lat="45.6275632" lon="11.3913653"><ele>227.0</ele><time>2026-03-31T16:05:51.169Z</time></trkpt><trkpt lat="45.62763" lon="11.3913521"><ele>227.0</ele><time>2026-03-31T16:05:54.169Z</time></trkpt><trkpt lat="45.6276969" lon="11.3913204"><ele>227.00000000000003</ele><time>2026-03-31T16:05:58.169Z</time></trkpt><trkpt lat="45.627761" lon="11.3913062"><ele>227.0</ele><time>2026-03-31T16:06:02.169Z</time></trkpt><trkpt lat="45.6278209" lon="11.391242"><ele>227.0</ele><time>2026-03-31T16:06:05.169Z</time></trkpt><trkpt lat="45.6278785" lon="11.3912002"><ele>229.0</ele><time>2026-03-31T16:06:08.17Z</time></trkpt><trkpt lat="45.6279433" lon="11.3911528"><ele>231.00000000000003</ele><time>2026-03-31T16:06:12.168Z</time></trkpt><trkpt lat="45.6280061" lon="11.3911121"><ele>233.0</ele><time>2026-03-31T16:06:15.169Z</time></trkpt><trkpt lat="45.6280695" lon="11.3910598"><ele>235.0</ele><time>2026-03-31T16:06:19.17Z</time></trkpt><trkpt lat="45.6281383" lon="11.3910254"><ele>237.00000000000003</ele><time>2026-03-31T16:06:22.168Z</time></trkpt><trkpt lat="45.628205" lon="11.3910054"><ele>239.0</ele><time>2026-03-31T16:06:26.169Z</time></trkpt><trkpt lat="45.6282712" lon="11.3909328"><ele>241.0</ele><time>2026-03-31T16:06:29.169Z</time></trkpt><trkpt lat="45.6283269" lon="11.3908774"><ele>241.0</ele><time>2026-03-31T16:06:32.169Z</time></trkpt><trkpt lat="45.6283909" lon="11.3908212"><ele>241.00000000000003</ele><time>2026-03-31T16:06:35.169Z</time></trkpt><trkpt lat="45.6284434" lon="11.3907492"><ele>241.0</ele><time>2026-03-31T16:06:38.169Z</time></trkpt><trkpt lat="45.6284974" lon="11.3906917"><ele>241.0</ele><time>2026-03-31T16:06:42.169Z</time></trkpt><trkpt lat="45.6285511" lon="11.3906207"><ele>241.00000000000003</ele><time>2026-03-31T16:06:47.169Z</time></trkpt><trkpt lat="45.6286074" lon="11.3905422"><ele>241.0</ele><time>2026-03-31T16:06:51.17Z</time></trkpt><trkpt lat="45.6286362" lon="11.3904493"><ele>241.0</ele><time>2026-03-31T16:06:55.17Z</time></trkpt><trkpt lat="45.6286676" lon="11.3903485"><ele>242.71428571428572</ele><time>2026-03-31T16:07:00.17Z</time></trkpt><trkpt lat="45.6287117" lon="11.390267"><ele>244.42857142857144</ele><time>2026-03-31T16:07:06.169Z</time></trkpt><trkpt lat="45.6287568" lon="11.3902025"><ele>246.14285714285717</ele><time>2026-03-31T16:07:10.169Z</time></trkpt><trkpt lat="45.6288235" lon="11.3901596"><ele>247.8571428571429</ele><time>2026-03-31T16:07:15.169Z</time></trkpt><trkpt lat="45.6288616" lon="11.3900838"><ele>249.57142857142858</ele><time>2026-03-31T16:07:19.169Z</time></trkpt><trkpt lat="45.6289154" lon="11.3900089"><ele>251.28571428571433</ele><time>2026-03-31T16:07:24.17Z</time></trkpt><trkpt lat="45.6289715" lon="11.3899597"><ele>253.00000000000003</ele><time>2026-03-31T16:07:28.17Z</time></trkpt><trkpt lat="45.6290199" lon="11.3898811"><ele>252.99999999999997</ele><time>2026-03-31T16:07:31.17Z</time></trkpt><trkpt lat="45.6290711" lon="11.3897976"><ele>253.0</ele><time>2026-03-31T16:07:36.169Z</time></trkpt><trkpt lat="45.6291035" lon="11.3897084"><ele>253.0</ele><time>2026-03-31T16:07:41.168Z</time></trkpt><trkpt lat="45.6292246" lon="11.3896489"><ele>253.0</ele><time>2026-03-31T16:07:52.169Z</time></trkpt><trkpt lat="45.6292797" lon="11.3896016"><ele>252.99999999999997</ele><time>2026-03-31T16:07:56.168Z</time></trkpt><trkpt lat="45.6293416" lon="11.3895638"><ele>253.0</ele><time>2026-03-31T16:08:05.17Z</time></trkpt><trkpt lat="45.6293994" lon="11.3896153"><ele>255.33333333333331</ele><time>2026-03-31T16:08:12.169Z</time></trkpt><trkpt lat="45.6294749" lon="11.3896234"><ele>257.66666666666663</ele><time>2026-03-31T16:08:24.168Z</time></trkpt><trkpt lat="45.6295603" lon="11.3896104"><ele>260.0</ele><time>2026-03-31T16:08:33.169Z</time></trkpt><trkpt lat="45.6296099" lon="11.3895193"><ele>262.3333333333333</ele><time>2026-03-31T16:08:37.169Z</time></trkpt><trkpt lat="45.6296294" lon="11.3894335"><ele>264.6666666666667</ele><time>2026-03-31T16:08:40.168Z</time></trkpt><trkpt lat="45.6296806" lon="11.3893585"><ele>267.0</ele><time>2026-03-31T16:08:44.169Z</time></trkpt><trkpt lat="45.6297777" lon="11.3893382"><ele>267.00000000000006</ele><time>2026-03-31T16:08:59.17Z</time></trkpt><trkpt lat="45.6298463" lon="11.389344"><ele>267.0</ele><time>2026-03-31T16:09:06.168Z</time></trkpt><trkpt lat="45.6299242" lon="11.3893166"><ele>267.0</ele><time>2026-03-31T16:09:14.169Z</time></trkpt><trkpt lat="45.629987" lon="11.3892874"><ele>267.0</ele><time>2026-03-31T16:09:19.168Z</time></trkpt><trkpt lat="45.6300474" lon="11.3892369"><ele>267.0</ele><time>2026-03-31T16:09:23.17Z</time></trkpt><trkpt lat="45.6300934" lon="11.389162"><ele>267.00000000000006</ele><time>2026-03-31T16:09:27.17Z</time></trkpt><trkpt lat="45.6301236" lon="11.3890821"><ele>267.0</ele><time>2026-03-31T16:09:30.168Z</time></trkpt><trkpt lat="45.6301481" lon="11.3889982"><ele>267.00000000000006</ele><time>2026-03-31T16:09:34.169Z</time></trkpt><trkpt lat="45.6302025" lon="11.3889186"><ele>267.0</ele><time>2026-03-31T16:09:38.169Z</time></trkpt><trkpt lat="45.6302568" lon="11.3888717"><ele>267.0</ele><time>2026-03-31T16:09:43.168Z</time></trkpt><trkpt lat="45.6303014" lon="11.3888073"><ele>267.0</ele><time>2026-03-31T16:09:48.169Z</time></trkpt><trkpt lat="45.6303529" lon="11.3887358"><ele>267.0</ele><time>2026-03-31T16:09:54.17Z</time></trkpt><trkpt lat="45.6303974" lon="11.3886362"><ele>267.00000000000006</ele><time>2026-03-31T16:09:59.169Z</time></trkpt><trkpt lat="45.6304287" lon="11.3885343"><ele>267.0</ele><time>2026-03-31T16:10:03.168Z</time></trkpt><trkpt lat="45.630455" lon="11.388439"><ele>269.28571428571433</ele><time>2026-03-31T16:10:07.17Z</time></trkpt><trkpt lat="45.6304683" lon="11.3883251"><ele>271.57142857142856</ele><time>2026-03-31T16:10:11.169Z</time></trkpt><trkpt lat="45.6304599" lon="11.3882107"><ele>273.8571428571429</ele><time>2026-03-31T16:10:14.168Z</time></trkpt><trkpt lat="45.630486" lon="11.3881237"><ele>276.14285714285717</ele><time>2026-03-31T16:10:17.169Z</time></trkpt><trkpt lat="45.6305311" lon="11.3880444"><ele>278.42857142857144</ele><time>2026-03-31T16:10:21.17Z</time></trkpt><trkpt lat="45.6305814" lon="11.387976"><ele>280.7142857142857</ele><time>2026-03-31T16:10:25.169Z</time></trkpt><trkpt lat="45.6306501" lon="11.3879443"><ele>283.0</ele><time>2026-03-31T16:10:29.169Z</time></trkpt><trkpt lat="45.6307164" lon="11.3878868"><ele>283.3333333333333</ele><time>2026-03-31T16:10:35.169Z</time></trkpt><trkpt lat="45.6307734" lon="11.3878276"><ele>283.66666666666663</ele><time>2026-03-31T16:10:40.169Z</time></trkpt><trkpt lat="45.6308502" lon="11.3878051"><ele>284.0</ele><time>2026-03-31T16:10:45.169Z</time></trkpt><trkpt lat="45.6308362" lon="11.3876993"><ele>284.3333333333333</ele><time>2026-03-31T16:10:51.17Z</time></trkpt><trkpt lat="45.6308231" lon="11.3875892"><ele>284.6666666666667</ele><time>2026-03-31T16:10:55.168Z</time></trkpt><trkpt lat="45.6309077" lon="11.3875617"><ele>285.0</ele><time>2026-03-31T16:11:02.169Z</time></trkpt><trkpt lat="45.6309333" lon="11.3874689"><ele>285.0</ele><time>2026-03-31T16:11:06.168Z</time></trkpt><trkpt lat="45.6309355" lon="11.3873717"><ele>285.0</ele><time>2026-03-31T16:11:10.169Z</time></trkpt><trkpt lat="45.6309593" lon="11.3872687"><ele>285.0</ele><time>2026-03-31T16:11:14.168Z</time></trkpt><trkpt lat="45.6309794" lon="11.3871824"><ele>285.0</ele><time>2026-03-31T16:11:19.169Z</time></trkpt><trkpt lat="45.6309965" lon="11.3870816"><ele>285.0</ele><time>2026-03-31T16:11:25.168Z</time></trkpt><trkpt lat="45.6310154" lon="11.3869773"><ele>285.0</ele><time>2026-03-31T16:11:31.169Z</time></trkpt><trkpt lat="45.6310466" lon="11.3868984"><ele>285.0</ele><time>2026-03-31T16:11:37.169Z</time></trkpt><trkpt lat="45.6310955" lon="11.3869766"><ele>285.2857142857143</ele><time>2026-03-31T16:11:45.169Z</time></trkpt><trkpt lat="45.6311491" lon="11.3870528"><ele>285.57142857142856</ele><time>2026-03-31T16:11:49.169Z</time></trkpt><trkpt lat="45.6312013" lon="11.3871278"><ele>285.8571428571429</ele><time>2026-03-31T16:11:52.168Z</time></trkpt><trkpt lat="45.6312339" lon="11.3872067"><ele>286.1428571428571</ele><time>2026-03-31T16:11:55.169Z</time></trkpt><trkpt lat="45.6312502" lon="11.3873077"><ele>286.42857142857144</ele><time>2026-03-31T16:12:01.168Z</time></trkpt><trkpt lat="45.6312204" lon="11.3873937"><ele>286.7142857142857</ele><time>2026-03-31T16:12:07.168Z</time></trkpt><trkpt lat="45.631166" lon="11.3874605"><ele>287.0</ele><time>2026-03-31T16:12:13.169Z</time></trkpt><trkpt lat="45.6311859" lon="11.3875764"><ele>286.7142857142857</ele><time>2026-03-31T16:12:17.17Z</time></trkpt><trkpt lat="45.6311785" lon="11.3876924"><ele>286.42857142857144</ele><time>2026-03-31T16:12:21.17Z</time></trkpt><trkpt lat="45.6311476" lon="11.3878034"><ele>286.1428571428571</ele><time>2026-03-31T16:12:25.169Z</time></trkpt><trkpt lat="45.6311349" lon="11.3879069"><ele>285.8571428571429</ele><time>2026-03-31T16:12:28.169Z</time></trkpt><trkpt lat="45.6311274" lon="11.3880109"><ele>285.57142857142856</ele><time>2026-03-31T16:12:31.169Z</time></trkpt><trkpt lat="45.63112" lon="11.3881044"><ele>285.2857142857143</ele><time>2026-03-31T16:12:35.17Z</time></trkpt><trkpt lat="45.6310966" lon="11.3881906"><ele>285.0</ele><time>2026-03-31T16:12:38.169Z</time></trkpt><trkpt lat="45.6310776" lon="11.3882991"><ele>284.7142857142857</ele><time>2026-03-31T16:12:41.169Z</time></trkpt><trkpt lat="45.6310651" lon="11.3884102"><ele>284.42857142857144</ele><time>2026-03-31T16:12:45.169Z</time></trkpt><trkpt lat="45.6310238" lon="11.3884943"><ele>284.14285714285717</ele><time>2026-03-31T16:12:49.169Z</time></trkpt><trkpt lat="45.6310137" lon="11.3886039"><ele>283.8571428571429</ele><time>2026-03-31T16:12:53.17Z</time></trkpt><trkpt lat="45.631019" lon="11.3886969"><ele>283.5714285714286</ele><time>2026-03-31T16:12:56.17Z</time></trkpt><trkpt lat="45.6310066" lon="11.3888079"><ele>283.2857142857143</ele><time>2026-03-31T16:13:00.169Z</time></trkpt><trkpt lat="45.6310047" lon="11.3889141"><ele>283.0</ele><time>2026-03-31T16:13:03.168Z</time></trkpt><trkpt lat="45.6310039" lon="11.389021"><ele>283.0</ele><time>2026-03-31T16:13:06.169Z</time></trkpt><trkpt lat="45.6310072" lon="11.3891288"><ele>283.0</ele><time>2026-03-31T16:13:09.168Z</time></trkpt><trkpt lat="45.6310407" lon="11.3892481"><ele>283.0</ele><time>2026-03-31T16:13:12.17Z</time></trkpt><trkpt lat="45.631089" lon="11.3893601"><ele>283.0</ele><time>2026-03-31T16:13:15.169Z</time></trkpt><trkpt lat="45.631125" lon="11.3894619"><ele>283.0</ele><time>2026-03-31T16:13:18.169Z</time></trkpt><trkpt lat="45.6311553" lon="11.3895582"><ele>283.0</ele><time>2026-03-31T16:13:21.169Z</time></trkpt><trkpt lat="45.6311874" lon="11.3896417"><ele>284.42857142857144</ele><time>2026-03-31T16:13:24.169Z</time></trkpt><trkpt lat="45.6312403" lon="11.3897135"><ele>285.8571428571429</ele><time>2026-03-31T16:13:28.169Z</time></trkpt><trkpt lat="45.6312375" lon="11.389809"><ele>287.2857142857143</ele><time>2026-03-31T16:13:33.169Z</time></trkpt><trkpt lat="45.6311891" lon="11.3898758"><ele>288.7142857142857</ele><time>2026-03-31T16:13:38.168Z</time></trkpt><trkpt lat="45.6311323" lon="11.3899227"><ele>290.1428571428571</ele><time>2026-03-31T16:13:42.17Z</time></trkpt><trkpt lat="45.6310698" lon="11.3899923"><ele>291.57142857142856</ele><time>2026-03-31T16:13:46.169Z</time></trkpt><trkpt lat="45.6310156" lon="11.3900568"><ele>293.0</ele><time>2026-03-31T16:13:51.168Z</time></trkpt><trkpt lat="45.6309516" lon="11.3900994"><ele>292.99999999999994</ele><time>2026-03-31T16:13:57.169Z</time></trkpt><trkpt lat="45.6308936" lon="11.3901478"><ele>293.0</ele><time>2026-03-31T16:14:01.169Z</time></trkpt><trkpt lat="45.6308436" lon="11.390219"><ele>293.0</ele><time>2026-03-31T16:14:05.17Z</time></trkpt><trkpt lat="45.6307794" lon="11.3902706"><ele>293.0</ele><time>2026-03-31T16:14:10.17Z</time></trkpt><trkpt lat="45.630725" lon="11.3903209"><ele>293.0</ele><time>2026-03-31T16:14:14.168Z</time></trkpt><trkpt lat="45.6306568" lon="11.3903855"><ele>292.99999999999994</ele><time>2026-03-31T16:14:18.169Z</time></trkpt><trkpt lat="45.6306121" lon="11.3904616"><ele>293.0</ele><time>2026-03-31T16:14:21.169Z</time></trkpt><trkpt lat="45.6305509" lon="11.3905555"><ele>293.4285714285714</ele><time>2026-03-31T16:14:24.17Z</time></trkpt><trkpt lat="45.6305014" lon="11.3906435"><ele>293.85714285714283</ele><time>2026-03-31T16:14:27.169Z</time></trkpt><trkpt lat="45.6304457" lon="11.3907115"><ele>294.2857142857143</ele><time>2026-03-31T16:14:30.168Z</time></trkpt><trkpt lat="45.6303761" lon="11.3907689"><ele>294.71428571428567</ele><time>2026-03-31T16:14:34.17Z</time></trkpt><trkpt lat="45.6303303" lon="11.3908356"><ele>295.1428571428571</ele><time>2026-03-31T16:14:38.169Z</time></trkpt><trkpt lat="45.6302772" lon="11.3908874"><ele>295.57142857142856</ele><time>2026-03-31T16:14:41.17Z</time></trkpt><trkpt lat="45.6302266" lon="11.3909502"><ele>296.0</ele><time>2026-03-31T16:14:44.169Z</time></trkpt><trkpt lat="45.6301722" lon="11.3910152"><ele>296.0</ele><time>2026-03-31T16:14:48.17Z</time></trkpt><trkpt lat="45.6301251" lon="11.3910795"><ele>296.0</ele><time>2026-03-31T16:14:51.17Z</time></trkpt><trkpt lat="45.6300674" lon="11.391122"><ele>296.0</ele><time>2026-03-31T16:14:54.169Z</time></trkpt><trkpt lat="45.6300111" lon="11.3912019"><ele>296.0</ele><time>2026-03-31T16:14:58.169Z</time></trkpt><trkpt lat="45.6299652" lon="11.3912741"><ele>296.0</ele><time>2026-03-31T16:15:01.169Z</time></trkpt><trkpt lat="45.6299011" lon="11.3913341"><ele>296.0</ele><time>2026-03-31T16:15:05.168Z</time></trkpt><trkpt lat="45.6298501" lon="11.3913919"><ele>296.0</ele><time>2026-03-31T16:15:09.169Z</time></trkpt><trkpt lat="45.6297902" lon="11.3914723"><ele>299.57142857142856</ele><time>2026-03-31T16:15:13.169Z</time></trkpt><trkpt lat="45.6297446" lon="11.3915411"><ele>303.1428571428571</ele><time>2026-03-31T16:15:16.169Z</time></trkpt><trkpt lat="45.629703" lon="11.3916295"><ele>306.71428571428567</ele><time>2026-03-31T16:15:19.17Z</time></trkpt><trkpt lat="45.629667" lon="11.3917355"><ele>310.2857142857143</ele><time>2026-03-31T16:15:22.169Z</time></trkpt><trkpt lat="45.6296239" lon="11.391823"><ele>313.85714285714283</ele><time>2026-03-31T16:15:25.17Z</time></trkpt><trkpt lat="45.6295982" lon="11.391915"><ele>317.4285714285714</ele><time>2026-03-31T16:15:28.169Z</time></trkpt><trkpt lat="45.6295581" lon="11.3920029"><ele>321.0</ele><time>2026-03-31T16:15:32.169Z</time></trkpt><trkpt lat="45.6295187" lon="11.3920937"><ele>318.71428571428567</ele><time>2026-03-31T16:15:36.168Z</time></trkpt><trkpt lat="45.6294622" lon="11.3921833"><ele>316.42857142857144</ele><time>2026-03-31T16:15:40.168Z</time></trkpt><trkpt lat="45.6294076" lon="11.3922458"><ele>314.1428571428571</ele><time>2026-03-31T16:15:43.169Z</time></trkpt><trkpt lat="45.6293665" lon="11.3923411"><ele>311.85714285714283</ele><time>2026-03-31T16:15:46.17Z</time></trkpt><trkpt lat="45.629329" lon="11.392416"><ele>309.57142857142856</ele><time>2026-03-31T16:15:49.169Z</time></trkpt><trkpt lat="45.6292919" lon="11.392489"><ele>307.2857142857143</ele><time>2026-03-31T16:15:52.169Z</time></trkpt><trkpt lat="45.6292509" lon="11.392578"><ele>305.0</ele><time>2026-03-31T16:15:56.169Z</time></trkpt><trkpt lat="45.6292271" lon="11.3926947"><ele>305.0</ele><time>2026-03-31T16:15:59.169Z</time></trkpt><trkpt lat="45.6291919" lon="11.3928002"><ele>305.0</ele><time>2026-03-31T16:16:03.169Z</time></trkpt><trkpt lat="45.6291406" lon="11.3928689"><ele>305.0</ele><time>2026-03-31T16:16:07.169Z</time></trkpt><trkpt lat="45.6291067" lon="11.3929558"><ele>305.0</ele><time>2026-03-31T16:16:11.171Z</time></trkpt><trkpt lat="45.6290569" lon="11.3930217"><ele>305.0</ele><time>2026-03-31T16:16:15.17Z</time></trkpt><trkpt lat="45.6290108" lon="11.3931017"><ele>305.0</ele><time>2026-03-31T16:16:19.169Z</time></trkpt><trkpt lat="45.6289849" lon="11.3931882"><ele>305.0</ele><time>2026-03-31T16:16:22.17Z</time></trkpt><trkpt lat="45.6289364" lon="11.3932819"><ele>308.2857142857143</ele><time>2026-03-31T16:16:26.171Z</time></trkpt><trkpt lat="45.6288938" lon="11.3933645"><ele>311.57142857142856</ele><time>2026-03-31T16:16:29.171Z</time></trkpt><trkpt lat="45.6288617" lon="11.393472"><ele>314.85714285714283</ele><time>2026-03-31T16:16:32.17Z</time></trkpt><trkpt lat="45.6288376" lon="11.3935733"><ele>318.1428571428571</ele><time>2026-03-31T16:16:35.17Z</time></trkpt><trkpt lat="45.6287984" lon="11.3936595"><ele>321.42857142857144</ele><time>2026-03-31T16:16:39.171Z</time></trkpt><trkpt lat="45.6287487" lon="11.3937351"><ele>324.71428571428567</ele><time>2026-03-31T16:16:42.171Z</time></trkpt><trkpt lat="45.6287088" lon="11.3938235"><ele>328.0</ele><time>2026-03-31T16:16:45.17Z</time></trkpt><trkpt lat="45.628684" lon="11.3939431"><ele>329.66666666666663</ele><time>2026-03-31T16:16:48.169Z</time></trkpt><trkpt lat="45.6286791" lon="11.3940415"><ele>331.3333333333333</ele><time>2026-03-31T16:16:50.17Z</time></trkpt><trkpt lat="45.6286879" lon="11.3941456"><ele>333.0</ele><time>2026-03-31T16:16:52.17Z</time></trkpt><trkpt lat="45.6287422" lon="11.3942427"><ele>334.6666666666667</ele><time>2026-03-31T16:16:55.169Z</time></trkpt><trkpt lat="45.6288132" lon="11.3942952"><ele>336.33333333333337</ele><time>2026-03-31T16:16:59.169Z</time></trkpt><trkpt lat="45.6288822" lon="11.3943511"><ele>338.0</ele><time>2026-03-31T16:17:03.169Z</time></trkpt><trkpt lat="45.6289462" lon="11.3944023"><ele>338.0</ele><time>2026-03-31T16:17:06.17Z</time></trkpt><trkpt lat="45.6290123" lon="11.3944508"><ele>338.0</ele><time>2026-03-31T16:17:10.171Z</time></trkpt><trkpt lat="45.6290665" lon="11.3945015"><ele>338.0</ele><time>2026-03-31T16:17:14.17Z</time></trkpt><trkpt lat="45.6291311" lon="11.3945239"><ele>338.0</ele><time>2026-03-31T16:17:18.17Z</time></trkpt><trkpt lat="45.6291899" lon="11.3945808"><ele>338.0</ele><time>2026-03-31T16:17:22.171Z</time></trkpt><trkpt lat="45.6292616" lon="11.3946072"><ele>338.0</ele><time>2026-03-31T16:17:25.17Z</time></trkpt><trkpt lat="45.6293309" lon="11.3946132"><ele>338.0</ele><time>2026-03-31T16:17:28.17Z</time></trkpt><trkpt lat="45.629393" lon="11.3946398"><ele>339.0</ele><time>2026-03-31T16:17:32.169Z</time></trkpt><trkpt lat="45.6294503" lon="11.3947035"><ele>340.0</ele><time>2026-03-31T16:17:36.17Z</time></trkpt><trkpt lat="45.6295228" lon="11.3947392"><ele>341.0</ele><time>2026-03-31T16:17:39.17Z</time></trkpt><trkpt lat="45.6295911" lon="11.3947806"><ele>342.0</ele><time>2026-03-31T16:17:43.17Z</time></trkpt><trkpt lat="45.6296597" lon="11.3948294"><ele>343.0</ele><time>2026-03-31T16:17:47.17Z</time></trkpt><trkpt lat="45.6297231" lon="11.3948877"><ele>344.0</ele><time>2026-03-31T16:17:51.171Z</time></trkpt><trkpt lat="45.6297815" lon="11.394927"><ele>345.0</ele><time>2026-03-31T16:17:54.171Z</time></trkpt><trkpt lat="45.6298398" lon="11.3949742"><ele>345.0</ele><time>2026-03-31T16:17:57.17Z</time></trkpt><trkpt lat="45.6298954" lon="11.395026"><ele>345.0</ele><time>2026-03-31T16:18:00.17Z</time></trkpt><trkpt lat="45.6299548" lon="11.3950656"><ele>345.0</ele><time>2026-03-31T16:18:03.17Z</time></trkpt><trkpt lat="45.6300157" lon="11.3951262"><ele>345.0</ele><time>2026-03-31T16:18:07.169Z</time></trkpt><trkpt lat="45.6300513" lon="11.3952172"><ele>345.0</ele><time>2026-03-31T16:18:12.17Z</time></trkpt><trkpt lat="45.6300509" lon="11.395309"><ele>345.0</ele><time>2026-03-31T16:18:17.17Z</time></trkpt><trkpt lat="45.6300799" lon="11.3953942"><ele>345.0</ele><time>2026-03-31T16:18:21.17Z</time></trkpt><trkpt lat="45.6301103" lon="11.3955046"><ele>342.42857142857144</ele><time>2026-03-31T16:18:25.169Z</time></trkpt><trkpt lat="45.6301335" lon="11.395605"><ele>339.85714285714283</ele><time>2026-03-31T16:18:30.171Z</time></trkpt><trkpt lat="45.630145" lon="11.3957098"><ele>337.2857142857143</ele><time>2026-03-31T16:18:35.17Z</time></trkpt><trkpt lat="45.6301516" lon="11.395806"><ele>334.7142857142857</ele><time>2026-03-31T16:18:39.169Z</time></trkpt><trkpt lat="45.6301653" lon="11.395909"><ele>332.14285714285717</ele><time>2026-03-31T16:18:43.17Z</time></trkpt><trkpt lat="45.6301913" lon="11.3960239"><ele>329.57142857142856</ele><time>2026-03-31T16:18:47.169Z</time></trkpt><trkpt lat="45.6302022" lon="11.3961155"><ele>327.0</ele><time>2026-03-31T16:18:50.17Z</time></trkpt><trkpt lat="45.6302103" lon="11.3962229"><ele>327.0</ele><time>2026-03-31T16:18:54.171Z</time></trkpt><trkpt lat="45.6302223" lon="11.3963152"><ele>327.0</ele><time>2026-03-31T16:18:57.171Z</time></trkpt><trkpt lat="45.6302428" lon="11.3964105"><ele>327.0</ele><time>2026-03-31T16:19:00.17Z</time></trkpt><trkpt lat="45.6302785" lon="11.3965151"><ele>327.0</ele><time>2026-03-31T16:19:03.17Z</time></trkpt><trkpt lat="45.6303256" lon="11.3966299"><ele>327.0</ele><time>2026-03-31T16:19:06.17Z</time></trkpt><trkpt lat="45.6303776" lon="11.3967369"><ele>327.0</ele><time>2026-03-31T16:19:09.17Z</time></trkpt><trkpt lat="45.630412" lon="11.3968355"><ele>331.85714285714283</ele><time>2026-03-31T16:19:12.169Z</time></trkpt><trkpt lat="45.6304515" lon="11.3969058"><ele>336.7142857142857</ele><time>2026-03-31T16:19:14.17Z</time></trkpt><trkpt lat="45.6305026" lon="11.396968"><ele>341.57142857142856</ele><time>2026-03-31T16:19:16.17Z</time></trkpt><trkpt lat="45.6305883" lon="11.3970128"><ele>346.42857142857144</ele><time>2026-03-31T16:19:19.169Z</time></trkpt><trkpt lat="45.6306655" lon="11.3970198"><ele>351.2857142857143</ele><time>2026-03-31T16:19:22.17Z</time></trkpt><trkpt lat="45.6307322" lon="11.3970323"><ele>356.14285714285717</ele><time>2026-03-31T16:19:25.17Z</time></trkpt><trkpt lat="45.6307979" lon="11.3970352"><ele>361.0</ele><time>2026-03-31T16:19:28.17Z</time></trkpt><trkpt lat="45.6308745" lon="11.3970486"><ele>361.0</ele><time>2026-03-31T16:19:32.169Z</time></trkpt><trkpt lat="45.6309463" lon="11.3970628"><ele>361.0</ele><time>2026-03-31T16:19:36.169Z</time></trkpt><trkpt lat="45.631019" lon="11.3970932"><ele>361.0</ele><time>2026-03-31T16:19:41.17Z</time></trkpt><trkpt lat="45.6310834" lon="11.3971379"><ele>361.0</ele><time>2026-03-31T16:19:46.17Z</time></trkpt><trkpt lat="45.6311589" lon="11.3971711"><ele>361.0</ele><time>2026-03-31T16:19:50.169Z</time></trkpt><trkpt lat="45.6312356" lon="11.3971918"><ele>361.0</ele><time>2026-03-31T16:19:54.17Z</time></trkpt><trkpt lat="45.6313126" lon="11.3972145"><ele>357.2857142857143</ele><time>2026-03-31T16:19:59.17Z</time></trkpt><trkpt lat="45.6313719" lon="11.3972699"><ele>353.57142857142856</ele><time>2026-03-31T16:20:03.171Z</time></trkpt><trkpt lat="45.6314473" lon="11.3973173"><ele>349.85714285714283</ele><time>2026-03-31T16:20:07.169Z</time></trkpt><trkpt lat="45.6315166" lon="11.3973326"><ele>346.1428571428571</ele><time>2026-03-31T16:20:10.169Z</time></trkpt><trkpt lat="45.6315939" lon="11.3973399"><ele>342.42857142857144</ele><time>2026-03-31T16:20:13.17Z</time></trkpt><trkpt lat="45.631659" lon="11.39736"><ele>338.71428571428567</ele><time>2026-03-31T16:20:16.17Z</time></trkpt><trkpt lat="45.6317225" lon="11.3973887"><ele>335.0</ele><time>2026-03-31T16:20:20.169Z</time></trkpt><trkpt lat="45.6317953" lon="11.3974119"><ele>334.99999999999994</ele><time>2026-03-31T16:20:24.17Z</time></trkpt><trkpt lat="45.631869" lon="11.3974379"><ele>335.0</ele><time>2026-03-31T16:20:28.171Z</time></trkpt><trkpt lat="45.6319326" lon="11.3974683"><ele>335.0</ele><time>2026-03-31T16:20:31.17Z</time></trkpt><trkpt lat="45.6319994" lon="11.3974779"><ele>335.0</ele><time>2026-03-31T16:20:34.17Z</time></trkpt><trkpt lat="45.6320693" lon="11.3975143"><ele>335.0</ele><time>2026-03-31T16:20:37.17Z</time></trkpt><trkpt lat="45.6321306" lon="11.3975358"><ele>334.99999999999994</ele><time>2026-03-31T16:20:40.17Z</time></trkpt><trkpt lat="45.6321926" lon="11.3975708"><ele>335.0</ele><time>2026-03-31T16:20:43.17Z</time></trkpt><trkpt lat="45.6322574" lon="11.3975948"><ele>339.1428571428571</ele><time>2026-03-31T16:20:46.17Z</time></trkpt><trkpt lat="45.6323351" lon="11.3976015"><ele>343.2857142857143</ele><time>2026-03-31T16:20:49.17Z</time></trkpt><trkpt lat="45.6323991" lon="11.3976166"><ele>347.42857142857144</ele><time>2026-03-31T16:20:52.171Z</time></trkpt><trkpt lat="45.6324555" lon="11.397671"><ele>351.57142857142856</ele><time>2026-03-31T16:20:56.17Z</time></trkpt><trkpt lat="45.6325212" lon="11.3977162"><ele>355.7142857142857</ele><time>2026-03-31T16:21:00.171Z</time></trkpt><trkpt lat="45.6326031" lon="11.397723"><ele>359.85714285714283</ele><time>2026-03-31T16:21:05.17Z</time></trkpt><trkpt lat="45.6326772" lon="11.3977451"><ele>364.0</ele><time>2026-03-31T16:21:09.171Z</time></trkpt><trkpt lat="45.6327319" lon="11.3978015"><ele>364.0</ele><time>2026-03-31T16:21:13.17Z</time></trkpt><trkpt lat="45.6327716" lon="11.3978814"><ele>364.0</ele><time>2026-03-31T16:21:18.171Z</time></trkpt><trkpt lat="45.6328425" lon="11.3979291"><ele>364.0</ele><time>2026-03-31T16:21:22.17Z</time></trkpt><trkpt lat="45.6329058" lon="11.3979863"><ele>364.0</ele><time>2026-03-31T16:21:26.17Z</time></trkpt><trkpt lat="45.6329759" lon="11.3980212"><ele>364.0</ele><time>2026-03-31T16:21:30.17Z</time></trkpt><trkpt lat="45.6330414" lon="11.3980048"><ele>364.0</ele><time>2026-03-31T16:21:33.171Z</time></trkpt><trkpt lat="45.6331106" lon="11.3979985"><ele>364.0</ele><time>2026-03-31T16:21:36.169Z</time></trkpt><trkpt lat="45.6331746" lon="11.3980334"><ele>366.5</ele><time>2026-03-31T16:21:41.171Z</time></trkpt><trkpt lat="45.6332313" lon="11.3980983"><ele>369.0</ele><time>2026-03-31T16:21:46.169Z</time></trkpt><trkpt lat="45.6336142" lon="11.3988942"><ele>371.57142857142856</ele><time>2026-03-31T16:22:29.171Z</time></trkpt><trkpt lat="45.6336586" lon="11.3989862"><ele>374.1428571428571</ele><time>2026-03-31T16:22:34.17Z</time></trkpt><trkpt lat="45.633702" lon="11.3990682"><ele>376.7142857142857</ele><time>2026-03-31T16:22:39.17Z</time></trkpt><trkpt lat="45.6337447" lon="11.399148"><ele>379.2857142857143</ele><time>2026-03-31T16:22:44.169Z</time></trkpt><trkpt lat="45.6338006" lon="11.3992149"><ele>381.8571428571429</ele><time>2026-03-31T16:22:48.17Z</time></trkpt><trkpt lat="45.6338582" lon="11.3992718"><ele>384.42857142857144</ele><time>2026-03-31T16:22:52.169Z</time></trkpt><trkpt lat="45.6339147" lon="11.3993434"><ele>387.0</ele><time>2026-03-31T16:22:57.17Z</time></trkpt><trkpt lat="45.6339699" lon="11.3993872"><ele>387.0</ele><time>2026-03-31T16:23:00.17Z</time></trkpt><trkpt lat="45.6340331" lon="11.3994161"><ele>387.0</ele><time>2026-03-31T16:23:03.169Z</time></trkpt><trkpt lat="45.6341004" lon="11.3994451"><ele>387.0</ele><time>2026-03-31T16:23:06.171Z</time></trkpt><trkpt lat="45.6341745" lon="11.3994893"><ele>387.0</ele><time>2026-03-31T16:23:10.17Z</time></trkpt><trkpt lat="45.6342527" lon="11.3995124"><ele>387.0</ele><time>2026-03-31T16:23:14.17Z</time></trkpt><trkpt lat="45.6344307" lon="11.3995237"><ele>388.0</ele><time>2026-03-31T16:23:27.17Z</time></trkpt><trkpt lat="45.6344872" lon="11.399475"><ele>389.0</ele><time>2026-03-31T16:23:30.17Z</time></trkpt><trkpt lat="45.634548" lon="11.3994337"><ele>390.0</ele><time>2026-03-31T16:23:34.169Z</time></trkpt><trkpt lat="45.6346225" lon="11.3994481"><ele>391.0</ele><time>2026-03-31T16:23:39.17Z</time></trkpt><trkpt lat="45.6346802" lon="11.3995029"><ele>392.0</ele><time>2026-03-31T16:23:44.171Z</time></trkpt><trkpt lat="45.6347516" lon="11.3995235"><ele>393.0</ele><time>2026-03-31T16:23:48.171Z</time></trkpt><trkpt lat="45.634916" lon="11.3995025"><ele>393.00000000000006</ele><time>2026-03-31T16:23:57.17Z</time></trkpt><trkpt lat="45.6349891" lon="11.3995221"><ele>393.0</ele><time>2026-03-31T16:24:02.169Z</time></trkpt><trkpt lat="45.6350409" lon="11.3995776"><ele>393.0</ele><time>2026-03-31T16:24:06.169Z</time></trkpt><trkpt lat="45.6351004" lon="11.3996319"><ele>393.0</ele><time>2026-03-31T16:24:10.169Z</time></trkpt><trkpt lat="45.6351622" lon="11.3996665"><ele>393.0</ele><time>2026-03-31T16:24:13.171Z</time></trkpt><trkpt lat="45.635224" lon="11.3997097"><ele>393.00000000000006</ele><time>2026-03-31T16:24:16.17Z</time></trkpt><trkpt lat="45.6352845" lon="11.3997514"><ele>393.0</ele><time>2026-03-31T16:24:19.17Z</time></trkpt><trkpt lat="45.6353447" lon="11.3997899"><ele>394.2</ele><time>2026-03-31T16:24:22.169Z</time></trkpt><trkpt lat="45.635399" lon="11.3998373"><ele>395.4</ele><time>2026-03-31T16:24:25.169Z</time></trkpt><trkpt lat="45.6354679" lon="11.3998812"><ele>396.59999999999997</ele><time>2026-03-31T16:24:29.17Z</time></trkpt><trkpt lat="45.6356591" lon="11.399801"><ele>397.79999999999995</ele><time>2026-03-31T16:24:39.17Z</time></trkpt><trkpt lat="45.6357335" lon="11.3997839"><ele>399.0</ele><time>2026-03-31T16:24:43.17Z</time></trkpt><trkpt lat="45.6357925" lon="11.3998349"><ele>399.0</ele><time>2026-03-31T16:24:48.171Z</time></trkpt><trkpt lat="45.6357857" lon="11.3999259"><ele>399.0</ele><time>2026-03-31T16:24:54.169Z</time></trkpt><trkpt lat="45.6357754" lon="11.4000317"><ele>399.0</ele><time>2026-03-31T16:24:58.17Z</time></trkpt><trkpt lat="45.6357534" lon="11.4001763"><ele>399.0</ele><time>2026-03-31T16:25:03.17Z</time></trkpt><trkpt lat="45.6357561" lon="11.4003114"><ele>399.0</ele><time>2026-03-31T16:25:06.17Z</time></trkpt><trkpt lat="45.6357554" lon="11.4004211"><ele>399.0</ele><time>2026-03-31T16:25:08.171Z</time></trkpt><trkpt lat="45.6357606" lon="11.4005973"><ele>397.5</ele><time>2026-03-31T16:25:10.17Z</time></trkpt><trkpt lat="45.6357617" lon="11.4007661"><ele>396.0</ele><time>2026-03-31T16:25:12.17Z</time></trkpt><trkpt lat="45.6357457" lon="11.4008594"><ele>394.5</ele><time>2026-03-31T16:25:13.171Z</time></trkpt><trkpt lat="45.6357491" lon="11.400954"><ele>393.0</ele><time>2026-03-31T16:25:14.171Z</time></trkpt><trkpt lat="45.6357533" lon="11.4010671"><ele>391.5</ele><time>2026-03-31T16:25:15.17Z</time></trkpt><trkpt lat="45.6358039" lon="11.4011628"><ele>390.0</ele><time>2026-03-31T16:25:16.17Z</time></trkpt><trkpt lat="45.635833" lon="11.4012548"><ele>388.8</ele><time>2026-03-31T16:25:17.169Z</time></trkpt><trkpt lat="45.6359244" lon="11.4013475"><ele>387.6</ele><time>2026-03-31T16:25:18.171Z</time></trkpt><trkpt lat="45.6359912" lon="11.4014566"><ele>386.4</ele><time>2026-03-31T16:25:19.17Z</time></trkpt><trkpt lat="45.6361036" lon="11.4014786"><ele>385.2</ele><time>2026-03-31T16:25:20.17Z</time></trkpt><trkpt lat="45.6362076" lon="11.4015611"><ele>384.0</ele><time>2026-03-31T16:25:21.17Z</time></trkpt><trkpt lat="45.6363143" lon="11.4016187"><ele>383.2</ele><time>2026-03-31T16:25:22.17Z</time></trkpt><trkpt lat="45.6364132" lon="11.4016898"><ele>382.4</ele><time>2026-03-31T16:25:23.171Z</time></trkpt><trkpt lat="45.6364832" lon="11.4017974"><ele>381.6</ele><time>2026-03-31T16:25:24.171Z</time></trkpt><trkpt lat="45.636554" lon="11.4019296"><ele>380.8</ele><time>2026-03-31T16:25:25.169Z</time></trkpt><trkpt lat="45.6366159" lon="11.402038"><ele>380.0</ele><time>2026-03-31T16:25:26.171Z</time></trkpt><trkpt lat="45.636672" lon="11.4021768"><ele>379.0</ele><time>2026-03-31T16:25:27.17Z</time></trkpt><trkpt lat="45.6367223" lon="11.4023027"><ele>378.0</ele><time>2026-03-31T16:25:28.169Z</time></trkpt><trkpt lat="45.6367835" lon="11.4024413"><ele>377.0</ele><time>2026-03-31T16:25:29.17Z</time></trkpt><trkpt lat="45.6368116" lon="11.4026004"><ele>376.0</ele><time>2026-03-31T16:25:30.171Z</time></trkpt><trkpt lat="45.6368176" lon="11.4027602"><ele>375.0</ele><time>2026-03-31T16:25:31.17Z</time></trkpt><trkpt lat="45.636822" lon="11.402911"><ele>373.4</ele><time>2026-03-31T16:25:32.17Z</time></trkpt><trkpt lat="45.636807" lon="11.4030735"><ele>371.8</ele><time>2026-03-31T16:25:33.17Z</time></trkpt><trkpt lat="45.636819" lon="11.4031914"><ele>370.20000000000005</ele><time>2026-03-31T16:25:34.169Z</time></trkpt><trkpt lat="45.6368349" lon="11.4033855"><ele>368.6</ele><time>2026-03-31T16:25:35.171Z</time></trkpt><trkpt lat="45.6368359" lon="11.4035387"><ele>367.0</ele><time>2026-03-31T16:25:36.169Z</time></trkpt><trkpt lat="45.6368447" lon="11.4037216"><ele>363.75</ele><time>2026-03-31T16:25:37.171Z</time></trkpt><trkpt lat="45.6368679" lon="11.4039359"><ele>360.5</ele><time>2026-03-31T16:25:38.169Z</time></trkpt><trkpt lat="45.6369024" lon="11.4041295"><ele>357.25</ele><time>2026-03-31T16:25:39.171Z</time></trkpt><trkpt lat="45.6369304" lon="11.4043376"><ele>354.0</ele><time>2026-03-31T16:25:40.17Z</time></trkpt><trkpt lat="45.636969" lon="11.4045284"><ele>355.75</ele><time>2026-03-31T16:25:41.171Z</time></trkpt><trkpt lat="45.637017" lon="11.4047038"><ele>357.5</ele><time>2026-03-31T16:25:42.169Z</time></trkpt><trkpt lat="45.6370649" lon="11.4048758"><ele>359.25</ele><time>2026-03-31T16:25:43.17Z</time></trkpt><trkpt lat="45.6371249" lon="11.4050404"><ele>361.0</ele><time>2026-03-31T16:25:44.17Z</time></trkpt><trkpt lat="45.6371808" lon="11.4052091"><ele>361.0</ele><time>2026-03-31T16:25:45.17Z</time></trkpt><trkpt lat="45.6372279" lon="11.4053505"><ele>361.0</ele><time>2026-03-31T16:25:46.17Z</time></trkpt><trkpt lat="45.6372908" lon="11.4054472"><ele>361.0</ele><time>2026-03-31T16:25:47.17Z</time></trkpt><trkpt lat="45.6373572" lon="11.405549"><ele>361.0</ele><time>2026-03-31T16:25:48.17Z</time></trkpt><trkpt lat="45.6374212" lon="11.4056307"><ele>361.0</ele><time>2026-03-31T16:25:49.169Z</time></trkpt><trkpt lat="45.6374804" lon="11.4056939"><ele>355.5</ele><time>2026-03-31T16:25:50.169Z</time></trkpt><trkpt lat="45.6376059" lon="11.4056837"><ele>350.0</ele><time>2026-03-31T16:25:51.17Z</time></trkpt><trkpt lat="45.6377162" lon="11.405702"><ele>344.5</ele><time>2026-03-31T16:25:52.17Z</time></trkpt><trkpt lat="45.637807" lon="11.4056992"><ele>339.0</ele><time>2026-03-31T16:25:53.17Z</time></trkpt><trkpt lat="45.6379292" lon="11.4057108"><ele>337.75</ele><time>2026-03-31T16:25:54.17Z</time></trkpt><trkpt lat="45.6380593" lon="11.4057322"><ele>336.5</ele><time>2026-03-31T16:25:55.17Z</time></trkpt><trkpt lat="45.6381742" lon="11.4057699"><ele>335.25</ele><time>2026-03-31T16:25:56.169Z</time></trkpt><trkpt lat="45.6382961" lon="11.4058474"><ele>334.0</ele><time>2026-03-31T16:25:57.17Z</time></trkpt><trkpt lat="45.6383733" lon="11.4059265"><ele>334.0</ele><time>2026-03-31T16:25:58.169Z</time></trkpt><trkpt lat="45.6384632" lon="11.4059928"><ele>334.0</ele><time>2026-03-31T16:25:59.17Z</time></trkpt><trkpt lat="45.6385631" lon="11.4060718"><ele>334.0</ele><time>2026-03-31T16:26:00.169Z</time></trkpt><trkpt lat="45.6386688" lon="11.4060917"><ele>334.0</ele><time>2026-03-31T16:26:01.171Z</time></trkpt><trkpt lat="45.6387558" lon="11.4061288"><ele>334.0</ele><time>2026-03-31T16:26:02.17Z</time></trkpt><trkpt lat="45.6388251" lon="11.406158"><ele>334.2</ele><time>2026-03-31T16:26:03.171Z</time></trkpt><trkpt lat="45.6389047" lon="11.4062177"><ele>334.4</ele><time>2026-03-31T16:26:04.17Z</time></trkpt><trkpt lat="45.6389779" lon="11.4062958"><ele>334.6</ele><time>2026-03-31T16:26:05.17Z</time></trkpt><trkpt lat="45.6390596" lon="11.4063409"><ele>334.8</ele><time>2026-03-31T16:26:06.17Z</time></trkpt><trkpt lat="45.6391581" lon="11.4063606"><ele>335.0</ele><time>2026-03-31T16:26:07.169Z</time></trkpt><trkpt lat="45.6392445" lon="11.406402"><ele>334.0</ele><time>2026-03-31T16:26:08.17Z</time></trkpt><trkpt lat="45.6393763" lon="11.406356"><ele>333.0</ele><time>2026-03-31T16:26:09.171Z</time></trkpt><trkpt lat="45.6394816" lon="11.4063538"><ele>332.0</ele><time>2026-03-31T16:26:10.17Z</time></trkpt><trkpt lat="45.6395893" lon="11.4063371"><ele>331.0</ele><time>2026-03-31T16:26:11.17Z</time></trkpt><trkpt lat="45.6397063" lon="11.4063237"><ele>327.25</ele><time>2026-03-31T16:26:12.17Z</time></trkpt><trkpt lat="45.6398322" lon="11.4063561"><ele>323.5</ele><time>2026-03-31T16:26:13.169Z</time></trkpt><trkpt lat="45.6399512" lon="11.4063517"><ele>319.75</ele><time>2026-03-31T16:26:14.17Z</time></trkpt><trkpt lat="45.6400656" lon="11.4063744"><ele>316.0</ele><time>2026-03-31T16:26:15.17Z</time></trkpt><trkpt lat="45.640185" lon="11.4063794"><ele>316.0</ele><time>2026-03-31T16:26:16.171Z</time></trkpt><trkpt lat="45.6402931" lon="11.4064116"><ele>316.0</ele><time>2026-03-31T16:26:17.17Z</time></trkpt><trkpt lat="45.6404007" lon="11.4064598"><ele>316.0</ele><time>2026-03-31T16:26:18.169Z</time></trkpt><trkpt lat="45.6405615" lon="11.4064742"><ele>316.0</ele><time>2026-03-31T16:26:20.17Z</time></trkpt><trkpt lat="45.6406736" lon="11.4065162"><ele>314.0</ele><time>2026-03-31T16:26:21.17Z</time></trkpt><trkpt lat="45.6407641" lon="11.4064549"><ele>312.0</ele><time>2026-03-31T16:26:22.17Z</time></trkpt><trkpt lat="45.640829" lon="11.4065343"><ele>310.0</ele><time>2026-03-31T16:26:23.17Z</time></trkpt><trkpt lat="45.6409176" lon="11.4065351"><ele>308.0</ele><time>2026-03-31T16:26:24.17Z</time></trkpt><trkpt lat="45.6410346" lon="11.4065246"><ele>306.0</ele><time>2026-03-31T16:26:25.17Z</time></trkpt><trkpt lat="45.6411199" lon="11.4064979"><ele>304.2</ele><time>2026-03-31T16:26:26.169Z</time></trkpt><trkpt lat="45.6412067" lon="11.4064364"><ele>302.40000000000003</ele><time>2026-03-31T16:26:27.17Z</time></trkpt><trkpt lat="45.6413259" lon="11.4063527"><ele>300.6</ele><time>2026-03-31T16:26:28.17Z</time></trkpt><trkpt lat="45.6414215" lon="11.4063392"><ele>298.8</ele><time>2026-03-31T16:26:29.17Z</time></trkpt><trkpt lat="45.6415192" lon="11.4062719"><ele>297.0</ele><time>2026-03-31T16:26:30.17Z</time></trkpt><trkpt lat="45.6416039" lon="11.4062349"><ele>300.2</ele><time>2026-03-31T16:26:31.17Z</time></trkpt><trkpt lat="45.6417055" lon="11.4061312"><ele>303.4</ele><time>2026-03-31T16:26:32.17Z</time></trkpt><trkpt lat="45.6417904" lon="11.4061157"><ele>306.6</ele><time>2026-03-31T16:26:33.169Z</time></trkpt><trkpt lat="45.6418798" lon="11.4060634"><ele>309.8</ele><time>2026-03-31T16:26:34.17Z</time></trkpt><trkpt lat="45.641974" lon="11.406032"><ele>313.0</ele><time>2026-03-31T16:26:35.17Z</time></trkpt><trkpt lat="45.642067" lon="11.4060088"><ele>313.0</ele><time>2026-03-31T16:26:36.17Z</time></trkpt><trkpt lat="45.6421651" lon="11.406"><ele>313.0</ele><time>2026-03-31T16:26:37.17Z</time></trkpt><trkpt lat="45.642254" lon="11.4060039"><ele>313.0</ele><time>2026-03-31T16:26:38.17Z</time></trkpt><trkpt lat="45.6423445" lon="11.4060122"><ele>313.0</ele><time>2026-03-31T16:26:39.169Z</time></trkpt><trkpt lat="45.6424341" lon="11.4059942"><ele>313.0</ele><time>2026-03-31T16:26:40.171Z</time></trkpt><trkpt lat="45.6425217" lon="11.4059835"><ele>313.0</ele><time>2026-03-31T16:26:41.17Z</time></trkpt><trkpt lat="45.642614" lon="11.4059571"><ele>313.0</ele><time>2026-03-31T16:26:42.169Z</time></trkpt><trkpt lat="45.6426999" lon="11.40594"><ele>313.0</ele><time>2026-03-31T16:26:43.171Z</time></trkpt><trkpt lat="45.6427907" lon="11.4059095"><ele>313.0</ele><time>2026-03-31T16:26:44.17Z</time></trkpt><trkpt lat="45.6428792" lon="11.4058902"><ele>313.0</ele><time>2026-03-31T16:26:45.17Z</time></trkpt><trkpt lat="45.6429663" lon="11.4058803"><ele>310.8</ele><time>2026-03-31T16:26:46.171Z</time></trkpt><trkpt lat="45.6430498" lon="11.4058556"><ele>308.6</ele><time>2026-03-31T16:26:47.169Z</time></trkpt><trkpt lat="45.6431365" lon="11.4058388"><ele>306.4</ele><time>2026-03-31T16:26:48.17Z</time></trkpt><trkpt lat="45.6432217" lon="11.4059008"><ele>304.2</ele><time>2026-03-31T16:26:49.169Z</time></trkpt><trkpt lat="45.6433036" lon="11.405968"><ele>302.0</ele><time>2026-03-31T16:26:50.169Z</time></trkpt><trkpt lat="45.643384" lon="11.4060291"><ele>302.0</ele><time>2026-03-31T16:26:51.17Z</time></trkpt><trkpt lat="45.6434755" lon="11.4060839"><ele>302.0</ele><time>2026-03-31T16:26:52.172Z</time></trkpt><trkpt lat="45.643519" lon="11.4062619"><ele>302.0</ele><time>2026-03-31T16:26:53.17Z</time></trkpt><trkpt lat="45.6435859" lon="11.4063744"><ele>302.0</ele><time>2026-03-31T16:26:54.17Z</time></trkpt><trkpt lat="45.643628" lon="11.4065366"><ele>297.75</ele><time>2026-03-31T16:26:55.171Z</time></trkpt><trkpt lat="45.6436899" lon="11.4066717"><ele>293.5</ele><time>2026-03-31T16:26:56.169Z</time></trkpt><trkpt lat="45.6437734" lon="11.4067215"><ele>289.25</ele><time>2026-03-31T16:26:57.171Z</time></trkpt><trkpt lat="45.6438793" lon="11.4068441"><ele>285.0</ele><time>2026-03-31T16:26:58.171Z</time></trkpt><trkpt lat="45.6440036" lon="11.4068965"><ele>285.0</ele><time>2026-03-31T16:26:59.17Z</time></trkpt><trkpt lat="45.6440944" lon="11.4069821"><ele>285.0</ele><time>2026-03-31T16:27:00.169Z</time></trkpt><trkpt lat="45.6441989" lon="11.4070681"><ele>285.0</ele><time>2026-03-31T16:27:01.171Z</time></trkpt><trkpt lat="45.6442858" lon="11.4071487"><ele>285.0</ele><time>2026-03-31T16:27:02.169Z</time></trkpt><trkpt lat="45.6443835" lon="11.407209"><ele>285.0</ele><time>2026-03-31T16:27:03.17Z</time></trkpt><trkpt lat="45.6444477" lon="11.4072453"><ele>281.5</ele><time>2026-03-31T16:27:04.17Z</time></trkpt><trkpt lat="45.6445175" lon="11.4072991"><ele>278.0</ele><time>2026-03-31T16:27:05.17Z</time></trkpt><trkpt lat="45.6445946" lon="11.4073713"><ele>274.5</ele><time>2026-03-31T16:27:06.17Z</time></trkpt><trkpt lat="45.6447576" lon="11.4071057"><ele>271.0</ele><time>2026-03-31T16:27:07.17Z</time></trkpt><trkpt lat="45.6448686" lon="11.4070539"><ele>270.5</ele><time>2026-03-31T16:27:08.17Z</time></trkpt><trkpt lat="45.644969" lon="11.406998"><ele>270.0</ele><time>2026-03-31T16:27:09.171Z</time></trkpt><trkpt lat="45.6450162" lon="11.406925"><ele>269.5</ele><time>2026-03-31T16:27:10.17Z</time></trkpt><trkpt lat="45.6450877" lon="11.4068693"><ele>269.0</ele><time>2026-03-31T16:27:11.17Z</time></trkpt><trkpt lat="45.6451942" lon="11.4068289"><ele>268.5</ele><time>2026-03-31T16:27:13.171Z</time></trkpt><trkpt lat="45.6452591" lon="11.4068022"><ele>268.0</ele><time>2026-03-31T16:27:14.17Z</time></trkpt><trkpt lat="45.6453289" lon="11.406924"><ele>264.4</ele><time>2026-03-31T16:27:15.172Z</time></trkpt><trkpt lat="45.6453998" lon="11.4070622"><ele>260.8</ele><time>2026-03-31T16:27:16.17Z</time></trkpt><trkpt lat="45.6454614" lon="11.407157"><ele>257.2</ele><time>2026-03-31T16:27:17.169Z</time></trkpt><trkpt lat="45.6455047" lon="11.4072505"><ele>253.6</ele><time>2026-03-31T16:27:18.169Z</time></trkpt><trkpt lat="45.6455526" lon="11.4073793"><ele>250.0</ele><time>2026-03-31T16:27:20.17Z</time></trkpt><trkpt lat="45.6456318" lon="11.4073066"><ele>249.99999999999997</ele><time>2026-03-31T16:27:22.17Z</time></trkpt><trkpt lat="45.6456678" lon="11.4071631"><ele>250.0</ele><time>2026-03-31T16:27:24.17Z</time></trkpt><trkpt lat="45.645694" lon="11.407055"><ele>250.0</ele><time>2026-03-31T16:27:25.171Z</time></trkpt><trkpt lat="45.6457196" lon="11.4069454"><ele>250.0</ele><time>2026-03-31T16:27:26.17Z</time></trkpt><trkpt lat="45.6457507" lon="11.4068403"><ele>249.99999999999997</ele><time>2026-03-31T16:27:27.171Z</time></trkpt><trkpt lat="45.6457828" lon="11.4067094"><ele>250.0</ele><time>2026-03-31T16:27:28.169Z</time></trkpt><trkpt lat="45.6458181" lon="11.4065716"><ele>249.99999999999997</ele><time>2026-03-31T16:27:29.171Z</time></trkpt><trkpt lat="45.6458635" lon="11.4064626"><ele>250.0</ele><time>2026-03-31T16:27:30.17Z</time></trkpt><trkpt lat="45.6459181" lon="11.4063745"><ele>250.0</ele><time>2026-03-31T16:27:31.169Z</time></trkpt><trkpt lat="45.6459822" lon="11.406291"><ele>250.0</ele><time>2026-03-31T16:27:32.17Z</time></trkpt><trkpt lat="45.6460299" lon="11.406206"><ele>249.99999999999997</ele><time>2026-03-31T16:27:33.17Z</time></trkpt><trkpt lat="45.6460982" lon="11.4061152"><ele>250.0</ele><time>2026-03-31T16:27:34.171Z</time></trkpt><trkpt lat="45.6461616" lon="11.4060328"><ele>249.4</ele><time>2026-03-31T16:27:35.169Z</time></trkpt><trkpt lat="45.6462419" lon="11.4059522"><ele>248.8</ele><time>2026-03-31T16:27:36.171Z</time></trkpt><trkpt lat="45.64632" lon="11.4058985"><ele>248.2</ele><time>2026-03-31T16:27:37.17Z</time></trkpt><trkpt lat="45.6464106" lon="11.4058887"><ele>247.6</ele><time>2026-03-31T16:27:38.17Z</time></trkpt><trkpt lat="45.6465143" lon="11.4058897"><ele>247.0</ele><time>2026-03-31T16:27:39.17Z</time></trkpt><trkpt lat="45.6466061" lon="11.4059212"><ele>247.0</ele><time>2026-03-31T16:27:40.17Z</time></trkpt><trkpt lat="45.6467061" lon="11.405935"><ele>247.0</ele><time>2026-03-31T16:27:41.169Z</time></trkpt><trkpt lat="45.6468042" lon="11.4059562"><ele>247.0</ele><time>2026-03-31T16:27:42.17Z</time></trkpt><trkpt lat="45.6469071" lon="11.4059363"><ele>247.0</ele><time>2026-03-31T16:27:43.171Z</time></trkpt><trkpt lat="45.646999" lon="11.4059206"><ele>247.0</ele><time>2026-03-31T16:27:44.171Z</time></trkpt><trkpt lat="45.6471009" lon="11.4059089"><ele>241.25</ele><time>2026-03-31T16:27:45.17Z</time></trkpt><trkpt lat="45.6472296" lon="11.4057401"><ele>235.5</ele><time>2026-03-31T16:27:46.171Z</time></trkpt><trkpt lat="45.6473461" lon="11.4056735"><ele>229.75</ele><time>2026-03-31T16:27:47.17Z</time></trkpt><trkpt lat="45.6474728" lon="11.4056119"><ele>224.0</ele><time>2026-03-31T16:27:48.171Z</time></trkpt><trkpt lat="45.6476034" lon="11.4055152"><ele>222.0</ele><time>2026-03-31T16:27:49.17Z</time></trkpt><trkpt lat="45.6477269" lon="11.4054565"><ele>220.0</ele><time>2026-03-31T16:27:50.17Z</time></trkpt><trkpt lat="45.64785" lon="11.4053997"><ele>218.0</ele><time>2026-03-31T16:27:51.169Z</time></trkpt><trkpt lat="45.6479488" lon="11.4053121"><ele>216.0</ele><time>2026-03-31T16:27:52.17Z</time></trkpt><trkpt lat="45.6480415" lon="11.4052237"><ele>216.0</ele><time>2026-03-31T16:27:53.17Z</time></trkpt><trkpt lat="45.6481271" lon="11.4051472"><ele>216.0</ele><time>2026-03-31T16:27:54.17Z</time></trkpt><trkpt lat="45.6481924" lon="11.4050504"><ele>216.0</ele><time>2026-03-31T16:27:55.17Z</time></trkpt><trkpt lat="45.6482493" lon="11.4049548"><ele>216.0</ele><time>2026-03-31T16:27:56.17Z</time></trkpt><trkpt lat="45.648291" lon="11.4048776"><ele>216.0</ele><time>2026-03-31T16:27:57.17Z</time></trkpt><trkpt lat="45.6482591" lon="11.4049659"><ele>216.0</ele><time>2026-03-31T16:28:02.17Z</time></trkpt><trkpt lat="45.6481901" lon="11.4050724"><ele>216.0</ele><time>2026-03-31T16:28:04.171Z</time></trkpt><trkpt lat="45.6481753" lon="11.405176"><ele>216.0</ele><time>2026-03-31T16:28:05.17Z</time></trkpt><trkpt lat="45.6481741" lon="11.4052733"><ele>216.0</ele><time>2026-03-31T16:28:06.17Z</time></trkpt><trkpt lat="45.6482303" lon="11.4053216"><ele>216.0</ele><time>2026-03-31T16:28:07.17Z</time></trkpt><trkpt lat="45.6483691" lon="11.4052667"><ele>216.0</ele><time>2026-03-31T16:28:09.17Z</time></trkpt><trkpt lat="45.6484336" lon="11.4052174"><ele>216.0</ele><time>2026-03-31T16:28:10.17Z</time></trkpt><trkpt lat="45.6485112" lon="11.4051528"><ele>216.0</ele><time>2026-03-31T16:28:11.171Z</time></trkpt><trkpt lat="45.6485855" lon="11.4051017"><ele>216.00000000000003</ele><time>2026-03-31T16:28:12.17Z</time></trkpt><trkpt lat="45.648682" lon="11.4050856"><ele>216.00000000000003</ele><time>2026-03-31T16:28:13.169Z</time></trkpt><trkpt lat="45.6487869" lon="11.4050744"><ele>216.0</ele><time>2026-03-31T16:28:14.17Z</time></trkpt><trkpt lat="45.6488834" lon="11.4050853"><ele>216.0</ele><time>2026-03-31T16:28:15.169Z</time></trkpt><trkpt lat="45.6489611" lon="11.4051753"><ele>210.5</ele><time>2026-03-31T16:28:16.17Z</time></trkpt><trkpt lat="45.6490524" lon="11.4053162"><ele>205.0</ele><time>2026-03-31T16:28:17.169Z</time></trkpt><trkpt lat="45.6491396" lon="11.4054894"><ele>199.5</ele><time>2026-03-31T16:28:18.169Z</time></trkpt><trkpt lat="45.6492235" lon="11.4056699"><ele>194.0</ele><time>2026-03-31T16:28:19.17Z</time></trkpt><trkpt lat="45.6493126" lon="11.4057989"><ele>191.25</ele><time>2026-03-31T16:28:20.169Z</time></trkpt><trkpt lat="45.6494026" lon="11.4059391"><ele>188.5</ele><time>2026-03-31T16:28:21.171Z</time></trkpt><trkpt lat="45.6494885" lon="11.406095"><ele>185.75</ele><time>2026-03-31T16:28:22.169Z</time></trkpt><trkpt lat="45.6495743" lon="11.406259"><ele>183.0</ele><time>2026-03-31T16:28:23.171Z</time></trkpt><trkpt lat="45.6496533" lon="11.4063885"><ele>180.60000000000002</ele><time>2026-03-31T16:28:24.169Z</time></trkpt><trkpt lat="45.6497389" lon="11.4065316"><ele>178.20000000000002</ele><time>2026-03-31T16:28:25.17Z</time></trkpt><trkpt lat="45.6498027" lon="11.4066535"><ele>175.8</ele><time>2026-03-31T16:28:26.17Z</time></trkpt><trkpt lat="45.6498599" lon="11.4067772"><ele>173.4</ele><time>2026-03-31T16:28:27.17Z</time></trkpt><trkpt lat="45.6499163" lon="11.4069045"><ele>171.0</ele><time>2026-03-31T16:28:28.17Z</time></trkpt><trkpt lat="45.6499657" lon="11.4070271"><ele>171.0</ele><time>2026-03-31T16:28:29.17Z</time></trkpt><trkpt lat="45.6500157" lon="11.4071453"><ele>171.0</ele><time>2026-03-31T16:28:30.17Z</time></trkpt><trkpt lat="45.65006" lon="11.4072685"><ele>171.0</ele><time>2026-03-31T16:28:31.17Z</time></trkpt><trkpt lat="45.6500786" lon="11.4073681"><ele>171.0</ele><time>2026-03-31T16:28:32.169Z</time></trkpt><trkpt lat="45.6500959" lon="11.4074899"><ele>171.0</ele><time>2026-03-31T16:28:33.17Z</time></trkpt><trkpt lat="45.6501459" lon="11.4076387"><ele>171.66666666666666</ele><time>2026-03-31T16:28:35.171Z</time></trkpt><trkpt lat="45.6501131" lon="11.4077547"><ele>172.33333333333334</ele><time>2026-03-31T16:28:36.17Z</time></trkpt><trkpt lat="45.6500879" lon="11.4078445"><ele>173.0</ele><time>2026-03-31T16:28:37.17Z</time></trkpt><trkpt lat="45.6500683" lon="11.4079634"><ele>173.66666666666669</ele><time>2026-03-31T16:28:38.17Z</time></trkpt><trkpt lat="45.650056" lon="11.4080678"><ele>174.33333333333334</ele><time>2026-03-31T16:28:39.169Z</time></trkpt><trkpt lat="45.6500666" lon="11.4081576"><ele>175.0</ele><time>2026-03-31T16:28:40.171Z</time></trkpt><trkpt lat="45.6500676" lon="11.408266"><ele>175.0</ele><time>2026-03-31T16:28:41.17Z</time></trkpt><trkpt lat="45.6500737" lon="11.4083928"><ele>175.0</ele><time>2026-03-31T16:28:42.169Z</time></trkpt><trkpt lat="45.650076" lon="11.4084996"><ele>175.0</ele><time>2026-03-31T16:28:43.169Z</time></trkpt><trkpt lat="45.6500807" lon="11.4086063"><ele>175.0</ele><time>2026-03-31T16:28:44.17Z</time></trkpt><trkpt lat="45.6500778" lon="11.4088297"><ele>175.0</ele><time>2026-03-31T16:28:46.169Z</time></trkpt><trkpt lat="45.6500693" lon="11.4089335"><ele>175.0</ele><time>2026-03-31T16:28:47.169Z</time></trkpt><trkpt lat="45.6500143" lon="11.4090705"><ele>175.0</ele><time>2026-03-31T16:28:49.169Z</time></trkpt><trkpt lat="45.6500172" lon="11.4091918"><ele>175.0</ele><time>2026-03-31T16:28:51.171Z</time></trkpt><trkpt lat="45.6500101" lon="11.4092904"><ele>175.0</ele><time>2026-03-31T16:28:53.171Z</time></trkpt><trkpt lat="45.6499461" lon="11.4093504"><ele>175.0</ele><time>2026-03-31T16:28:55.17Z</time></trkpt><trkpt lat="45.6498622" lon="11.4093629"><ele>175.0</ele><time>2026-03-31T16:28:57.171Z</time></trkpt><trkpt lat="45.6497638" lon="11.4094187"><ele>175.0</ele><time>2026-03-31T16:28:59.17Z</time></trkpt><trkpt lat="45.6496923" lon="11.4094669"><ele>175.0</ele><time>2026-03-31T16:29:01.17Z</time></trkpt><trkpt lat="45.6496851" lon="11.4095576"><ele>175.0</ele><time>2026-03-31T16:29:04.17Z</time></trkpt><trkpt lat="45.649705" lon="11.409664"><ele>175.0</ele><time>2026-03-31T16:29:07.17Z</time></trkpt><trkpt lat="45.6497003" lon="11.4097539"><ele>175.0</ele><time>2026-03-31T16:29:11.17Z</time></trkpt><trkpt lat="45.6496721" lon="11.4098489"><ele>175.0</ele><time>2026-03-31T16:29:17.17Z</time></trkpt><trkpt lat="45.6496898" lon="11.4099453"><ele>175.0</ele><time>2026-03-31T16:29:23.17Z</time></trkpt><trkpt lat="45.6497344" lon="11.4100288"><ele>173.8</ele><time>2026-03-31T16:29:26.17Z</time></trkpt><trkpt lat="45.6497956" lon="11.410125"><ele>172.6</ele><time>2026-03-31T16:29:28.17Z</time></trkpt><trkpt lat="45.6498742" lon="11.4102427"><ele>171.39999999999998</ele><time>2026-03-31T16:29:30.17Z</time></trkpt><trkpt lat="45.6499676" lon="11.410319"><ele>170.2</ele><time>2026-03-31T16:29:31.171Z</time></trkpt><trkpt lat="45.6500336" lon="11.4103769"><ele>169.0</ele><time>2026-03-31T16:29:32.171Z</time></trkpt><trkpt lat="45.6501022" lon="11.4104039"><ele>169.0</ele><time>2026-03-31T16:29:33.169Z</time></trkpt><trkpt lat="45.6501969" lon="11.410425"><ele>169.0</ele><time>2026-03-31T16:29:34.171Z</time></trkpt><trkpt lat="45.6503052" lon="11.4104477"><ele>169.0</ele><time>2026-03-31T16:29:35.169Z</time></trkpt><trkpt lat="45.6504385" lon="11.4103953"><ele>169.0</ele><time>2026-03-31T16:29:36.17Z</time></trkpt><trkpt lat="45.6505307" lon="11.4103986"><ele>169.0</ele><time>2026-03-31T16:29:37.17Z</time></trkpt><trkpt lat="45.6506103" lon="11.41039"><ele>165.6</ele><time>2026-03-31T16:29:38.17Z</time></trkpt><trkpt lat="45.6506945" lon="11.4103421"><ele>162.2</ele><time>2026-03-31T16:29:39.169Z</time></trkpt><trkpt lat="45.6507792" lon="11.4102682"><ele>158.79999999999998</ele><time>2026-03-31T16:29:40.17Z</time></trkpt><trkpt lat="45.6508254" lon="11.4101621"><ele>155.39999999999998</ele><time>2026-03-31T16:29:41.171Z</time></trkpt><trkpt lat="45.6508657" lon="11.4100473"><ele>152.0</ele><time>2026-03-31T16:29:42.169Z</time></trkpt><trkpt lat="45.6509051" lon="11.4099407"><ele>152.0</ele><time>2026-03-31T16:29:44.17Z</time></trkpt><trkpt lat="45.6509473" lon="11.409844"><ele>152.0</ele><time>2026-03-31T16:29:46.17Z</time></trkpt><trkpt lat="45.6509968" lon="11.4097306"><ele>152.0</ele><time>2026-03-31T16:29:47.171Z</time></trkpt><trkpt lat="45.6510273" lon="11.4096237"><ele>152.0</ele><time>2026-03-31T16:29:48.17Z</time></trkpt><trkpt lat="45.6510655" lon="11.4095313"><ele>152.0</ele><time>2026-03-31T16:29:49.17Z</time></trkpt><trkpt lat="45.6511144" lon="11.4093981"><ele>152.0</ele><time>2026-03-31T16:29:50.17Z</time></trkpt><trkpt lat="45.6511479" lon="11.4092947"><ele>149.4</ele><time>2026-03-31T16:29:51.17Z</time></trkpt><trkpt lat="45.6511782" lon="11.4091794"><ele>146.79999999999998</ele><time>2026-03-31T16:29:52.17Z</time></trkpt><trkpt lat="45.6512099" lon="11.409069"><ele>144.2</ele><time>2026-03-31T16:29:53.171Z</time></trkpt><trkpt lat="45.651249" lon="11.4089559"><ele>141.6</ele><time>2026-03-31T16:29:54.171Z</time></trkpt><trkpt lat="45.6513044" lon="11.4088393"><ele>139.0</ele><time>2026-03-31T16:29:55.17Z</time></trkpt><trkpt lat="45.6513702" lon="11.4087263"><ele>139.0</ele><time>2026-03-31T16:29:56.169Z</time></trkpt><trkpt lat="45.6514483" lon="11.4086094"><ele>139.0</ele><time>2026-03-31T16:29:57.17Z</time></trkpt><trkpt lat="45.6515377" lon="11.4085062"><ele>139.0</ele><time>2026-03-31T16:29:58.17Z</time></trkpt><trkpt lat="45.6516131" lon="11.4084073"><ele>139.0</ele><time>2026-03-31T16:29:59.17Z</time></trkpt><trkpt lat="45.6517024" lon="11.4083189"><ele>139.0</ele><time>2026-03-31T16:30:00.17Z</time></trkpt><trkpt lat="45.6517988" lon="11.4082202"><ele>139.0</ele><time>2026-03-31T16:30:01.17Z</time></trkpt><trkpt lat="45.6519061" lon="11.4081657"><ele>139.0</ele><time>2026-03-31T16:30:02.17Z</time></trkpt><trkpt lat="45.6519936" lon="11.4081018"><ele>139.0</ele><time>2026-03-31T16:30:03.17Z</time></trkpt><trkpt lat="45.6521055" lon="11.4079976"><ele>139.0</ele><time>2026-03-31T16:30:04.171Z</time></trkpt><trkpt lat="45.6521781" lon="11.407889"><ele>137.0</ele><time>2026-03-31T16:30:05.169Z</time></trkpt><trkpt lat="45.6522295" lon="11.4077673"><ele>135.0</ele><time>2026-03-31T16:30:06.17Z</time></trkpt><trkpt lat="45.6522905" lon="11.4076856"><ele>133.0</ele><time>2026-03-31T16:30:07.169Z</time></trkpt><trkpt lat="45.6523247" lon="11.4076078"><ele>131.0</ele><time>2026-03-31T16:30:08.17Z</time></trkpt><trkpt lat="45.6523803" lon="11.4074991"><ele>129.0</ele><time>2026-03-31T16:30:10.17Z</time></trkpt><trkpt lat="45.6524332" lon="11.4075621"><ele>127.0</ele><time>2026-03-31T16:30:13.17Z</time></trkpt><trkpt lat="45.6524878" lon="11.4076423"><ele>127.00000000000001</ele><time>2026-03-31T16:30:15.171Z</time></trkpt><trkpt lat="45.6525199" lon="11.4077414"><ele>127.0</ele><time>2026-03-31T16:30:17.169Z</time></trkpt><trkpt lat="45.6525272" lon="11.407857"><ele>127.0</ele><time>2026-03-31T16:30:18.169Z</time></trkpt><trkpt lat="45.6524971" lon="11.4079829"><ele>127.0</ele><time>2026-03-31T16:30:19.17Z</time></trkpt><trkpt lat="45.6525356" lon="11.4080837"><ele>127.00000000000001</ele><time>2026-03-31T16:30:20.17Z</time></trkpt><trkpt lat="45.6525435" lon="11.4081758"><ele>127.0</ele><time>2026-03-31T16:30:21.169Z</time></trkpt><trkpt lat="45.6525758" lon="11.4082547"><ele>126.19999999999999</ele><time>2026-03-31T16:30:22.171Z</time></trkpt><trkpt lat="45.6526355" lon="11.4083635"><ele>125.39999999999999</ele><time>2026-03-31T16:30:23.169Z</time></trkpt><trkpt lat="45.6526918" lon="11.4084833"><ele>124.60000000000001</ele><time>2026-03-31T16:30:25.17Z</time></trkpt><trkpt lat="45.6527771" lon="11.4085792"><ele>123.80000000000001</ele><time>2026-03-31T16:30:27.17Z</time></trkpt><trkpt lat="45.6528271" lon="11.4087289"><ele>123.0</ele><time>2026-03-31T16:30:29.17Z</time></trkpt><trkpt lat="45.6528669" lon="11.40881"><ele>120.33333333333333</ele><time>2026-03-31T16:30:30.17Z</time></trkpt><trkpt lat="45.6529031" lon="11.4088843"><ele>117.66666666666666</ele><time>2026-03-31T16:30:31.17Z</time></trkpt><trkpt lat="45.6529403" lon="11.4089658"><ele>115.0</ele><time>2026-03-31T16:30:32.171Z</time></trkpt><trkpt lat="45.6529631" lon="11.4090551"><ele>112.33333333333333</ele><time>2026-03-31T16:30:33.17Z</time></trkpt><trkpt lat="45.6529683" lon="11.4091714"><ele>109.66666666666666</ele><time>2026-03-31T16:30:35.17Z</time></trkpt><trkpt lat="45.65299" lon="11.4092738"><ele>107.0</ele><time>2026-03-31T16:30:36.17Z</time></trkpt><trkpt lat="45.6529816" lon="11.4094267"><ele>107.0</ele><time>2026-03-31T16:30:38.17Z</time></trkpt><trkpt lat="45.6529763" lon="11.4096123"><ele>106.99999999999999</ele><time>2026-03-31T16:30:40.17Z</time></trkpt><trkpt lat="45.6529667" lon="11.4097664"><ele>106.99999999999999</ele><time>2026-03-31T16:30:42.17Z</time></trkpt><trkpt lat="45.6529827" lon="11.4099149"><ele>107.0</ele><time>2026-03-31T16:30:44.17Z</time></trkpt><trkpt lat="45.652948" lon="11.4100476"><ele>107.0</ele><time>2026-03-31T16:30:46.169Z</time></trkpt><trkpt lat="45.6528984" lon="11.4101807"><ele>106.83333333333333</ele><time>2026-03-31T16:30:48.17Z</time></trkpt><trkpt lat="45.6528553" lon="11.4102542"><ele>106.66666666666666</ele><time>2026-03-31T16:30:51.169Z</time></trkpt><trkpt lat="45.6528055" lon="11.4103353"><ele>106.5</ele><time>2026-03-31T16:30:54.171Z</time></trkpt><trkpt lat="45.6527429" lon="11.4103753"><ele>106.33333333333334</ele><time>2026-03-31T16:30:55.171Z</time></trkpt><trkpt lat="45.6526816" lon="11.4104292"><ele>106.16666666666667</ele><time>2026-03-31T16:30:56.17Z</time></trkpt><trkpt lat="45.6526166" lon="11.4104898"><ele>106.0</ele><time>2026-03-31T16:30:57.17Z</time></trkpt><trkpt lat="45.6525011" lon="11.4105781"><ele>105.83333333333334</ele><time>2026-03-31T16:30:59.171Z</time></trkpt><trkpt lat="45.6524545" lon="11.4106573"><ele>105.66666666666667</ele><time>2026-03-31T16:31:00.169Z</time></trkpt><trkpt lat="45.6523787" lon="11.4106773"><ele>105.5</ele><time>2026-03-31T16:31:01.169Z</time></trkpt><trkpt lat="45.652287" lon="11.4107377"><ele>105.33333333333334</ele><time>2026-03-31T16:31:03.17Z</time></trkpt><trkpt lat="45.652211" lon="11.4107802"><ele>105.16666666666667</ele><time>2026-03-31T16:31:08.17Z</time></trkpt><trkpt lat="45.6522279" lon="11.4109009"><ele>105.0</ele><time>2026-03-31T16:31:11.171Z</time></trkpt><trkpt lat="45.6522645" lon="11.4110021"><ele>105.0</ele><time>2026-03-31T16:31:13.169Z</time></trkpt><trkpt lat="45.6522962" lon="11.411142"><ele>105.0</ele><time>2026-03-31T16:31:15.171Z</time></trkpt><trkpt lat="45.6523148" lon="11.411276"><ele>105.0</ele><time>2026-03-31T16:31:17.17Z</time></trkpt><trkpt lat="45.6523604" lon="11.4114122"><ele>105.0</ele><time>2026-03-31T16:31:19.17Z</time></trkpt><trkpt lat="45.6524012" lon="11.4115294"><ele>105.0</ele><time>2026-03-31T16:31:21.169Z</time></trkpt><trkpt lat="45.6524507" lon="11.4116564"><ele>104.4</ele><time>2026-03-31T16:31:23.169Z</time></trkpt><trkpt lat="45.6524865" lon="11.4117865"><ele>103.8</ele><time>2026-03-31T16:31:25.17Z</time></trkpt><trkpt lat="45.6525205" lon="11.4119143"><ele>103.19999999999999</ele><time>2026-03-31T16:31:27.17Z</time></trkpt><trkpt lat="45.6525477" lon="11.4120444"><ele>102.6</ele><time>2026-03-31T16:31:29.169Z</time></trkpt><trkpt lat="45.6525025" lon="11.4121425"><ele>102.0</ele><time>2026-03-31T16:31:31.17Z</time></trkpt><trkpt lat="45.6524087" lon="11.4121944"><ele>101.8</ele><time>2026-03-31T16:31:33.17Z</time></trkpt><trkpt lat="45.6523125" lon="11.4122286"><ele>101.6</ele><time>2026-03-31T16:31:35.17Z</time></trkpt><trkpt lat="45.652218" lon="11.4122526"><ele>101.39999999999999</ele><time>2026-03-31T16:31:37.17Z</time></trkpt><trkpt lat="45.6521269" lon="11.412275"><ele>101.19999999999999</ele><time>2026-03-31T16:31:39.17Z</time></trkpt><trkpt lat="45.6520316" lon="11.412306"><ele>101.0</ele><time>2026-03-31T16:31:41.171Z</time></trkpt><trkpt lat="45.6519329" lon="11.4123363"><ele>101.0</ele><time>2026-03-31T16:31:43.17Z</time></trkpt><trkpt lat="45.6518416" lon="11.4123677"><ele>101.0</ele><time>2026-03-31T16:31:45.17Z</time></trkpt><trkpt lat="45.6517492" lon="11.4124166"><ele>101.0</ele><time>2026-03-31T16:31:47.169Z</time></trkpt><trkpt lat="45.6516534" lon="11.4124798"><ele>101.0</ele><time>2026-03-31T16:31:49.171Z</time></trkpt><trkpt lat="45.6515649" lon="11.4125594"><ele>101.0</ele><time>2026-03-31T16:31:51.17Z</time></trkpt><trkpt lat="45.6514819" lon="11.4126315"><ele>100.99999999999999</ele><time>2026-03-31T16:31:53.169Z</time></trkpt><trkpt lat="45.6513976" lon="11.4127022"><ele>101.0</ele><time>2026-03-31T16:31:55.17Z</time></trkpt><trkpt lat="45.6513145" lon="11.4127754"><ele>101.0</ele><time>2026-03-31T16:31:57.17Z</time></trkpt><trkpt lat="45.6512382" lon="11.4128339"><ele>101.0</ele><time>2026-03-31T16:31:59.17Z</time></trkpt><trkpt lat="45.6511645" lon="11.4128787"><ele>100.99999999999999</ele><time>2026-03-31T16:32:01.171Z</time></trkpt><trkpt lat="45.6510862" lon="11.4129071"><ele>101.0</ele><time>2026-03-31T16:32:03.17Z</time></trkpt><trkpt lat="45.6510124" lon="11.412936"><ele>101.49999999999999</ele><time>2026-03-31T16:32:05.17Z</time></trkpt><trkpt lat="45.6509433" lon="11.4129745"><ele>102.0</ele><time>2026-03-31T16:32:07.169Z</time></trkpt><trkpt lat="45.6508803" lon="11.4130196"><ele>102.5</ele><time>2026-03-31T16:32:09.17Z</time></trkpt><trkpt lat="45.650813" lon="11.413073"><ele>103.0</ele><time>2026-03-31T16:32:11.171Z</time></trkpt><trkpt lat="45.6507269" lon="11.4131264"><ele>103.49999999999999</ele><time>2026-03-31T16:32:13.17Z</time></trkpt><trkpt lat="45.6506104" lon="11.4131754"><ele>104.0</ele><time>2026-03-31T16:32:15.169Z</time></trkpt><trkpt lat="45.6505466" lon="11.4131954"><ele>103.99999999999999</ele><time>2026-03-31T16:32:16.17Z</time></trkpt><trkpt lat="45.6504796" lon="11.4132132"><ele>104.0</ele><time>2026-03-31T16:32:17.169Z</time></trkpt><trkpt lat="45.6504095" lon="11.413231"><ele>104.0</ele><time>2026-03-31T16:32:18.171Z</time></trkpt><trkpt lat="45.6503385" lon="11.4132499"><ele>104.0</ele><time>2026-03-31T16:32:19.171Z</time></trkpt><trkpt lat="45.6502439" lon="11.4132696"><ele>103.99999999999999</ele><time>2026-03-31T16:32:20.17Z</time></trkpt><trkpt lat="45.6501616" lon="11.4133159"><ele>104.0</ele><time>2026-03-31T16:32:21.17Z</time></trkpt><trkpt lat="45.6500965" lon="11.4133793"><ele>104.16666666666666</ele><time>2026-03-31T16:32:22.171Z</time></trkpt><trkpt lat="45.6500411" lon="11.4134554"><ele>104.33333333333333</ele><time>2026-03-31T16:32:23.171Z</time></trkpt><trkpt lat="45.6499946" lon="11.4135337"><ele>104.5</ele><time>2026-03-31T16:32:24.171Z</time></trkpt><trkpt lat="45.6499492" lon="11.4136049"><ele>104.66666666666666</ele><time>2026-03-31T16:32:25.17Z</time></trkpt><trkpt lat="45.6498723" lon="11.4137455"><ele>104.83333333333333</ele><time>2026-03-31T16:32:27.17Z</time></trkpt><trkpt lat="45.649827" lon="11.4138145"><ele>105.0</ele><time>2026-03-31T16:32:28.169Z</time></trkpt><trkpt lat="45.6497552" lon="11.4139584"><ele>105.0</ele><time>2026-03-31T16:32:30.169Z</time></trkpt><trkpt lat="45.6497143" lon="11.4140278"><ele>105.0</ele><time>2026-03-31T16:32:31.17Z</time></trkpt><trkpt lat="45.6496765" lon="11.4141147"><ele>105.0</ele><time>2026-03-31T16:32:32.17Z</time></trkpt><trkpt lat="45.6496495" lon="11.4142024"><ele>105.0</ele><time>2026-03-31T16:32:33.17Z</time></trkpt><trkpt lat="45.6496217" lon="11.4142851"><ele>105.0</ele><time>2026-03-31T16:32:34.17Z</time></trkpt><trkpt lat="45.6495867" lon="11.4143681"><ele>105.0</ele><time>2026-03-31T16:32:35.17Z</time></trkpt><trkpt lat="45.6495382" lon="11.414528"><ele>103.5</ele><time>2026-03-31T16:32:37.17Z</time></trkpt><trkpt lat="45.6494666" lon="11.4146715"><ele>102.0</ele><time>2026-03-31T16:32:39.171Z</time></trkpt><trkpt lat="45.649401" lon="11.4148277"><ele>100.5</ele><time>2026-03-31T16:32:41.171Z</time></trkpt><trkpt lat="45.6493189" lon="11.4149547"><ele>99.0</ele><time>2026-03-31T16:32:43.171Z</time></trkpt><trkpt lat="45.6492375" lon="11.4150878"><ele>99.4</ele><time>2026-03-31T16:32:45.17Z</time></trkpt><trkpt lat="45.6491442" lon="11.415219"><ele>99.80000000000001</ele><time>2026-03-31T16:32:47.17Z</time></trkpt><trkpt lat="45.6490858" lon="11.4153474"><ele>100.19999999999999</ele><time>2026-03-31T16:32:49.17Z</time></trkpt><trkpt lat="45.64902" lon="11.415388"><ele>100.6</ele><time>2026-03-31T16:32:50.17Z</time></trkpt><trkpt lat="45.6489551" lon="11.4154416"><ele>101.0</ele><time>2026-03-31T16:32:51.17Z</time></trkpt><trkpt lat="45.6488613" lon="11.4155518"><ele>101.0</ele><time>2026-03-31T16:32:53.171Z</time></trkpt><trkpt lat="45.6487853" lon="11.415669"><ele>101.0</ele><time>2026-03-31T16:32:55.171Z</time></trkpt><trkpt lat="45.6487388" lon="11.4157393"><ele>101.0</ele><time>2026-03-31T16:32:56.171Z</time></trkpt><trkpt lat="45.6486585" lon="11.4158546"><ele>101.0</ele><time>2026-03-31T16:32:58.172Z</time></trkpt><trkpt lat="45.6485452" lon="11.415945"><ele>101.0</ele><time>2026-03-31T16:33:00.171Z</time></trkpt><trkpt lat="45.6484485" lon="11.416057"><ele>101.0</ele><time>2026-03-31T16:33:02.171Z</time></trkpt><trkpt lat="45.648344" lon="11.4161504"><ele>101.0</ele><time>2026-03-31T16:33:04.17Z</time></trkpt><trkpt lat="45.6482809" lon="11.4161825"><ele>101.0</ele><time>2026-03-31T16:33:05.172Z</time></trkpt><trkpt lat="45.6481806" lon="11.4162643"><ele>101.0</ele><time>2026-03-31T16:33:07.171Z</time></trkpt><trkpt lat="45.648063" lon="11.4163161"><ele>101.0</ele><time>2026-03-31T16:33:09.17Z</time></trkpt><trkpt lat="45.6479589" lon="11.4163791"><ele>101.0</ele><time>2026-03-31T16:33:11.171Z</time></trkpt><trkpt lat="45.647876" lon="11.4164525"><ele>101.0</ele><time>2026-03-31T16:33:13.17Z</time></trkpt><trkpt lat="45.6477842" lon="11.4165416"><ele>101.0</ele><time>2026-03-31T16:33:15.171Z</time></trkpt><trkpt lat="45.6476759" lon="11.4165885"><ele>101.0</ele><time>2026-03-31T16:33:17.171Z</time></trkpt><trkpt lat="45.64759" lon="11.4166502"><ele>101.0</ele><time>2026-03-31T16:33:19.172Z</time></trkpt><trkpt lat="45.6474905" lon="11.4167199"><ele>102.19999999999999</ele><time>2026-03-31T16:33:21.171Z</time></trkpt><trkpt lat="45.6473664" lon="11.4167662"><ele>103.39999999999999</ele><time>2026-03-31T16:33:23.17Z</time></trkpt><trkpt lat="45.6472635" lon="11.4168771"><ele>104.6</ele><time>2026-03-31T16:33:25.172Z</time></trkpt><trkpt lat="45.6471936" lon="11.4169135"><ele>105.8</ele><time>2026-03-31T16:33:26.171Z</time></trkpt><trkpt lat="45.6471295" lon="11.4169804"><ele>107.0</ele><time>2026-03-31T16:33:27.171Z</time></trkpt><trkpt lat="45.6470503" lon="11.4171082"><ele>106.39999999999999</ele><time>2026-03-31T16:33:29.171Z</time></trkpt><trkpt lat="45.6469976" lon="11.4171808"><ele>105.79999999999998</ele><time>2026-03-31T16:33:30.171Z</time></trkpt><trkpt lat="45.6469588" lon="11.4172552"><ele>105.2</ele><time>2026-03-31T16:33:31.17Z</time></trkpt><trkpt lat="45.646884" lon="11.4174056"><ele>104.6</ele><time>2026-03-31T16:33:33.171Z</time></trkpt><trkpt lat="45.6467987" lon="11.417528"><ele>104.0</ele><time>2026-03-31T16:33:35.172Z</time></trkpt><trkpt lat="45.6467434" lon="11.4175891"><ele>103.99999999999999</ele><time>2026-03-31T16:33:36.171Z</time></trkpt><trkpt lat="45.6466845" lon="11.4176501"><ele>104.0</ele><time>2026-03-31T16:33:37.171Z</time></trkpt><trkpt lat="45.646621" lon="11.4177085"><ele>104.0</ele><time>2026-03-31T16:33:38.172Z</time></trkpt><trkpt lat="45.6465641" lon="11.4177672"><ele>104.0</ele><time>2026-03-31T16:33:39.171Z</time></trkpt><trkpt lat="45.6465039" lon="11.417812"><ele>103.99999999999999</ele><time>2026-03-31T16:33:40.17Z</time></trkpt><trkpt lat="45.6464407" lon="11.4178337"><ele>104.0</ele><time>2026-03-31T16:33:41.17Z</time></trkpt><trkpt lat="45.6463358" lon="11.4179003"><ele>103.99999999999999</ele><time>2026-03-31T16:33:43.172Z</time></trkpt><trkpt lat="45.6462868" lon="11.417963"><ele>104.0</ele><time>2026-03-31T16:33:44.171Z</time></trkpt><trkpt lat="45.6461948" lon="11.4180742"><ele>104.0</ele><time>2026-03-31T16:33:46.171Z</time></trkpt><trkpt lat="45.6461405" lon="11.4181198"><ele>104.0</ele><time>2026-03-31T16:33:47.171Z</time></trkpt><trkpt lat="45.6460877" lon="11.4181763"><ele>103.99999999999999</ele><time>2026-03-31T16:33:48.171Z</time></trkpt><trkpt lat="45.6460369" lon="11.4182312"><ele>104.0</ele><time>2026-03-31T16:33:49.17Z</time></trkpt><trkpt lat="45.6459902" lon="11.4183124"><ele>103.80000000000001</ele><time>2026-03-31T16:33:50.171Z</time></trkpt><trkpt lat="45.6459187" lon="11.4184387"><ele>103.60000000000001</ele><time>2026-03-31T16:33:52.172Z</time></trkpt><trkpt lat="45.6458508" lon="11.4185573"><ele>103.4</ele><time>2026-03-31T16:33:54.171Z</time></trkpt><trkpt lat="45.6457728" lon="11.4186841"><ele>103.2</ele><time>2026-03-31T16:33:56.172Z</time></trkpt><trkpt lat="45.6457515" lon="11.4187735"><ele>103.0</ele><time>2026-03-31T16:33:57.17Z</time></trkpt><trkpt lat="45.6456866" lon="11.4189427"><ele>102.50000000000001</ele><time>2026-03-31T16:33:59.171Z</time></trkpt><trkpt lat="45.6456534" lon="11.4190327"><ele>102.0</ele><time>2026-03-31T16:34:00.171Z</time></trkpt><trkpt lat="45.6456203" lon="11.4191362"><ele>101.5</ele><time>2026-03-31T16:34:01.171Z</time></trkpt><trkpt lat="45.6455446" lon="11.4193046"><ele>101.0</ele><time>2026-03-31T16:34:03.171Z</time></trkpt><trkpt lat="45.6455211" lon="11.4193922"><ele>100.50000000000001</ele><time>2026-03-31T16:34:04.171Z</time></trkpt><trkpt lat="45.6455026" lon="11.4194948"><ele>100.0</ele><time>2026-03-31T16:34:05.17Z</time></trkpt><trkpt lat="45.6454546" lon="11.4195786"><ele>99.50000000000001</ele><time>2026-03-31T16:34:06.172Z</time></trkpt><trkpt lat="45.6454106" lon="11.4196513"><ele>99.0</ele><time>2026-03-31T16:34:07.171Z</time></trkpt><trkpt lat="45.6453619" lon="11.4197262"><ele>98.5</ele><time>2026-03-31T16:34:08.171Z</time></trkpt><trkpt lat="45.6453161" lon="11.4197893"><ele>98.0</ele><time>2026-03-31T16:34:09.17Z</time></trkpt><trkpt lat="45.6452552" lon="11.4198407"><ele>97.50000000000001</ele><time>2026-03-31T16:34:10.171Z</time></trkpt><trkpt lat="45.6451536" lon="11.4199441"><ele>97.0</ele><time>2026-03-31T16:34:12.171Z</time></trkpt><trkpt lat="45.6450444" lon="11.4200443"><ele>98.83333333333334</ele><time>2026-03-31T16:34:14.17Z</time></trkpt><trkpt lat="45.6449375" lon="11.4201349"><ele>100.66666666666667</ele><time>2026-03-31T16:34:16.171Z</time></trkpt><trkpt lat="45.644875" lon="11.4201717"><ele>102.5</ele><time>2026-03-31T16:34:17.171Z</time></trkpt><trkpt lat="45.6448259" lon="11.4202419"><ele>104.33333333333334</ele><time>2026-03-31T16:34:18.171Z</time></trkpt><trkpt lat="45.6447666" lon="11.4202852"><ele>106.16666666666667</ele><time>2026-03-31T16:34:19.171Z</time></trkpt><trkpt lat="45.6447104" lon="11.4203354"><ele>108.0</ele><time>2026-03-31T16:34:20.171Z</time></trkpt><trkpt lat="45.6446094" lon="11.4204439"><ele>108.5</ele><time>2026-03-31T16:34:22.172Z</time></trkpt><trkpt lat="45.6444943" lon="11.4205447"><ele>109.0</ele><time>2026-03-31T16:34:24.171Z</time></trkpt><trkpt lat="45.6444392" lon="11.4205977"><ele>109.5</ele><time>2026-03-31T16:34:25.171Z</time></trkpt><trkpt lat="45.6443808" lon="11.4206425"><ele>110.0</ele><time>2026-03-31T16:34:26.17Z</time></trkpt><trkpt lat="45.6443221" lon="11.4207126"><ele>110.5</ele><time>2026-03-31T16:34:27.171Z</time></trkpt><trkpt lat="45.6442678" lon="11.4207616"><ele>111.0</ele><time>2026-03-31T16:34:28.171Z</time></trkpt><trkpt lat="45.6442018" lon="11.4208129"><ele>111.0</ele><time>2026-03-31T16:34:29.172Z</time></trkpt><trkpt lat="45.6441482" lon="11.4208672"><ele>111.0</ele><time>2026-03-31T16:34:30.171Z</time></trkpt><trkpt lat="45.6440781" lon="11.4209136"><ele>111.0</ele><time>2026-03-31T16:34:31.17Z</time></trkpt><trkpt lat="45.6440219" lon="11.4209608"><ele>111.0</ele><time>2026-03-31T16:34:32.172Z</time></trkpt><trkpt lat="45.6439682" lon="11.421015"><ele>111.0</ele><time>2026-03-31T16:34:33.17Z</time></trkpt><trkpt lat="45.6439107" lon="11.421082"><ele>111.0</ele><time>2026-03-31T16:34:34.171Z</time></trkpt><trkpt lat="45.6438516" lon="11.4211464"><ele>111.0</ele><time>2026-03-31T16:34:35.171Z</time></trkpt><trkpt lat="45.643805" lon="11.4212332"><ele>111.0</ele><time>2026-03-31T16:34:36.171Z</time></trkpt><trkpt lat="45.6437433" lon="11.4212903"><ele>111.0</ele><time>2026-03-31T16:34:37.172Z</time></trkpt><trkpt lat="45.6436775" lon="11.4213429"><ele>111.0</ele><time>2026-03-31T16:34:38.172Z</time></trkpt><trkpt lat="45.6436117" lon="11.4213992"><ele>111.0</ele><time>2026-03-31T16:34:39.171Z</time></trkpt><trkpt lat="45.6435414" lon="11.4214566"><ele>111.0</ele><time>2026-03-31T16:34:40.171Z</time></trkpt><trkpt lat="45.6434811" lon="11.4215231"><ele>111.0</ele><time>2026-03-31T16:34:41.172Z</time></trkpt><trkpt lat="45.6434067" lon="11.4215901"><ele>109.83333333333333</ele><time>2026-03-31T16:34:42.171Z</time></trkpt><trkpt lat="45.6433378" lon="11.421642"><ele>108.66666666666666</ele><time>2026-03-31T16:34:43.171Z</time></trkpt><trkpt lat="45.6432689" lon="11.421705"><ele>107.5</ele><time>2026-03-31T16:34:44.17Z</time></trkpt><trkpt lat="45.6431878" lon="11.4217434"><ele>106.33333333333333</ele><time>2026-03-31T16:34:45.17Z</time></trkpt><trkpt lat="45.6431044" lon="11.4217785"><ele>105.16666666666666</ele><time>2026-03-31T16:34:46.171Z</time></trkpt><trkpt lat="45.6430339" lon="11.4218249"><ele>104.0</ele><time>2026-03-31T16:34:47.17Z</time></trkpt><trkpt lat="45.6429537" lon="11.4218414"><ele>104.0</ele><time>2026-03-31T16:34:48.172Z</time></trkpt><trkpt lat="45.6428671" lon="11.4218743"><ele>104.0</ele><time>2026-03-31T16:34:49.17Z</time></trkpt><trkpt lat="45.6427714" lon="11.4218992"><ele>104.0</ele><time>2026-03-31T16:34:50.171Z</time></trkpt><trkpt lat="45.6426622" lon="11.4218927"><ele>104.0</ele><time>2026-03-31T16:34:51.171Z</time></trkpt><trkpt lat="45.642585" lon="11.4218354"><ele>104.0</ele><time>2026-03-31T16:34:52.171Z</time></trkpt><trkpt lat="45.6425251" lon="11.4217919"><ele>104.4</ele><time>2026-03-31T16:34:53.172Z</time></trkpt><trkpt lat="45.6423931" lon="11.4218513"><ele>104.80000000000001</ele><time>2026-03-31T16:34:55.171Z</time></trkpt><trkpt lat="45.6423172" lon="11.4218611"><ele>105.19999999999999</ele><time>2026-03-31T16:34:56.171Z</time></trkpt><trkpt lat="45.6422332" lon="11.4218723"><ele>105.6</ele><time>2026-03-31T16:34:57.171Z</time></trkpt><trkpt lat="45.6421599" lon="11.4218791"><ele>106.0</ele><time>2026-03-31T16:34:58.171Z</time></trkpt><trkpt lat="45.6420737" lon="11.4219006"><ele>106.0</ele><time>2026-03-31T16:34:59.171Z</time></trkpt><trkpt lat="45.642007" lon="11.4219303"><ele>106.0</ele><time>2026-03-31T16:35:00.17Z</time></trkpt><trkpt lat="45.6419434" lon="11.4219785"><ele>106.0</ele><time>2026-03-31T16:35:01.171Z</time></trkpt><trkpt lat="45.6418767" lon="11.4220226"><ele>106.0</ele><time>2026-03-31T16:35:02.172Z</time></trkpt><trkpt lat="45.641815" lon="11.4220744"><ele>106.0</ele><time>2026-03-31T16:35:03.171Z</time></trkpt><trkpt lat="45.6417675" lon="11.4221686"><ele>106.0</ele><time>2026-03-31T16:35:04.171Z</time></trkpt><trkpt lat="45.6417015" lon="11.4221725"><ele>106.0</ele><time>2026-03-31T16:35:05.17Z</time></trkpt><trkpt lat="45.6416393" lon="11.4221398"><ele>105.4</ele><time>2026-03-31T16:35:06.172Z</time></trkpt><trkpt lat="45.6415682" lon="11.4221109"><ele>104.8</ele><time>2026-03-31T16:35:07.17Z</time></trkpt><trkpt lat="45.641441" lon="11.4221041"><ele>104.2</ele><time>2026-03-31T16:35:09.171Z</time></trkpt><trkpt lat="45.6413202" lon="11.4221528"><ele>103.60000000000001</ele><time>2026-03-31T16:35:11.17Z</time></trkpt><trkpt lat="45.64128" lon="11.4222247"><ele>103.0</ele><time>2026-03-31T16:35:12.171Z</time></trkpt><trkpt lat="45.6411859" lon="11.4223242"><ele>101.33333333333334</ele><time>2026-03-31T16:35:14.171Z</time></trkpt><trkpt lat="45.6410908" lon="11.4224202"><ele>99.66666666666667</ele><time>2026-03-31T16:35:16.172Z</time></trkpt><trkpt lat="45.6410404" lon="11.4224857"><ele>98.0</ele><time>2026-03-31T16:35:17.171Z</time></trkpt><trkpt lat="45.6409854" lon="11.4225497"><ele>96.33333333333334</ele><time>2026-03-31T16:35:18.171Z</time></trkpt><trkpt lat="45.6409009" lon="11.4226702"><ele>94.66666666666667</ele><time>2026-03-31T16:35:20.17Z</time></trkpt><trkpt lat="45.6408466" lon="11.4227176"><ele>93.0</ele><time>2026-03-31T16:35:21.171Z</time></trkpt><trkpt lat="45.6407772" lon="11.4227634"><ele>93.0</ele><time>2026-03-31T16:35:22.171Z</time></trkpt><trkpt lat="45.6407274" lon="11.4228275"><ele>93.0</ele><time>2026-03-31T16:35:23.171Z</time></trkpt><trkpt lat="45.6406803" lon="11.4228912"><ele>93.0</ele><time>2026-03-31T16:35:24.171Z</time></trkpt><trkpt lat="45.6405897" lon="11.4229968"><ele>93.0</ele><time>2026-03-31T16:35:26.171Z</time></trkpt><trkpt lat="45.6405464" lon="11.4230692"><ele>93.0</ele><time>2026-03-31T16:35:27.171Z</time></trkpt><trkpt lat="45.6404487" lon="11.4231962"><ele>93.0</ele><time>2026-03-31T16:35:29.172Z</time></trkpt><trkpt lat="45.6403898" lon="11.4232592"><ele>93.0</ele><time>2026-03-31T16:35:30.171Z</time></trkpt><trkpt lat="45.640286" lon="11.4233143"><ele>93.0</ele><time>2026-03-31T16:35:32.171Z</time></trkpt><trkpt lat="45.6402342" lon="11.4232549"><ele>93.0</ele><time>2026-03-31T16:35:33.172Z</time></trkpt><trkpt lat="45.6401574" lon="11.423211"><ele>93.0</ele><time>2026-03-31T16:35:34.17Z</time></trkpt><trkpt lat="45.6401771" lon="11.4230826"><ele>93.0</ele><time>2026-03-31T16:35:35.171Z</time></trkpt><trkpt lat="45.6401084" lon="11.4229336"><ele>93.2</ele><time>2026-03-31T16:35:37.171Z</time></trkpt><trkpt lat="45.6400687" lon="11.4227881"><ele>93.4</ele><time>2026-03-31T16:35:39.17Z</time></trkpt><trkpt lat="45.6400194" lon="11.4226478"><ele>93.60000000000001</ele><time>2026-03-31T16:35:41.17Z</time></trkpt><trkpt lat="45.639974" lon="11.4225071"><ele>93.80000000000001</ele><time>2026-03-31T16:35:43.171Z</time></trkpt><trkpt lat="45.6399108" lon="11.4223918"><ele>94.0</ele><time>2026-03-31T16:35:45.172Z</time></trkpt><trkpt lat="45.6398575" lon="11.4222782"><ele>94.0</ele><time>2026-03-31T16:35:47.171Z</time></trkpt><trkpt lat="45.6398037" lon="11.4221649"><ele>94.0</ele><time>2026-03-31T16:35:49.171Z</time></trkpt><trkpt lat="45.6397619" lon="11.4220511"><ele>94.0</ele><time>2026-03-31T16:35:51.171Z</time></trkpt><trkpt lat="45.6397071" lon="11.4219316"><ele>94.0</ele><time>2026-03-31T16:35:53.171Z</time></trkpt><trkpt lat="45.6396611" lon="11.4218405"><ele>94.0</ele><time>2026-03-31T16:35:55.171Z</time></trkpt><trkpt lat="45.63963" lon="11.4217338"><ele>94.0</ele><time>2026-03-31T16:35:57.172Z</time></trkpt><trkpt lat="45.6395933" lon="11.4216294"><ele>94.14285714285714</ele><time>2026-03-31T16:35:59.171Z</time></trkpt><trkpt lat="45.6395573" lon="11.4215408"><ele>94.28571428571428</ele><time>2026-03-31T16:36:01.171Z</time></trkpt><trkpt lat="45.6395145" lon="11.4214432"><ele>94.42857142857143</ele><time>2026-03-31T16:36:03.17Z</time></trkpt><trkpt lat="45.6394737" lon="11.4213623"><ele>94.57142857142857</ele><time>2026-03-31T16:36:05.171Z</time></trkpt><trkpt lat="45.6394184" lon="11.4212611"><ele>94.71428571428572</ele><time>2026-03-31T16:36:08.171Z</time></trkpt><trkpt lat="45.639389" lon="11.421176"><ele>94.85714285714286</ele><time>2026-03-31T16:36:10.17Z</time></trkpt><trkpt lat="45.6393546" lon="11.421097"><ele>95.0</ele><time>2026-03-31T16:36:12.171Z</time></trkpt><trkpt lat="45.6393235" lon="11.4209727"><ele>95.33333333333334</ele><time>2026-03-31T16:36:15.172Z</time></trkpt><trkpt lat="45.6393131" lon="11.4208827"><ele>95.66666666666667</ele><time>2026-03-31T16:36:17.17Z</time></trkpt><trkpt lat="45.6392954" lon="11.420796"><ele>96.0</ele><time>2026-03-31T16:36:19.171Z</time></trkpt><trkpt lat="45.6392505" lon="11.4206825"><ele>96.33333333333334</ele><time>2026-03-31T16:36:22.171Z</time></trkpt><trkpt lat="45.6392145" lon="11.4205767"><ele>96.66666666666667</ele><time>2026-03-31T16:36:25.172Z</time></trkpt><trkpt lat="45.639185" lon="11.4204591"><ele>97.0</ele><time>2026-03-31T16:36:28.171Z</time></trkpt><trkpt lat="45.6391553" lon="11.4203422"><ele>97.83333333333334</ele><time>2026-03-31T16:36:31.17Z</time></trkpt><trkpt lat="45.6391494" lon="11.4202307"><ele>98.66666666666667</ele><time>2026-03-31T16:36:34.171Z</time></trkpt><trkpt lat="45.6390995" lon="11.4201712"><ele>99.5</ele><time>2026-03-31T16:36:37.171Z</time></trkpt><trkpt lat="45.6390185" lon="11.4201715"><ele>100.33333333333334</ele><time>2026-03-31T16:36:40.171Z</time></trkpt><trkpt lat="45.6389383" lon="11.4201836"><ele>101.16666666666667</ele><time>2026-03-31T16:36:43.171Z</time></trkpt><trkpt lat="45.6388532" lon="11.4201979"><ele>102.0</ele><time>2026-03-31T16:36:46.172Z</time></trkpt><trkpt lat="45.6387739" lon="11.4202049"><ele>102.0</ele><time>2026-03-31T16:36:49.171Z</time></trkpt><trkpt lat="45.638698" lon="11.4201991"><ele>102.0</ele><time>2026-03-31T16:36:52.17Z</time></trkpt><trkpt lat="45.6386298" lon="11.4201937"><ele>102.0</ele><time>2026-03-31T16:36:55.171Z</time></trkpt><trkpt lat="45.6385644" lon="11.4201507"><ele>102.0</ele><time>2026-03-31T16:36:58.171Z</time></trkpt><trkpt lat="45.6385062" lon="11.4200946"><ele>102.0</ele><time>2026-03-31T16:37:01.17Z</time></trkpt><trkpt lat="45.6384476" lon="11.420058"><ele>102.0</ele><time>2026-03-31T16:37:04.17Z</time></trkpt><trkpt lat="45.6383712" lon="11.4200281"><ele>102.0</ele><time>2026-03-31T16:37:08.171Z</time></trkpt><trkpt lat="45.6382971" lon="11.4200182"><ele>102.57142857142857</ele><time>2026-03-31T16:37:12.171Z</time></trkpt><trkpt lat="45.6382321" lon="11.4200117"><ele>103.14285714285714</ele><time>2026-03-31T16:37:16.17Z</time></trkpt><trkpt lat="45.6381867" lon="11.4199356"><ele>103.71428571428572</ele><time>2026-03-31T16:37:21.172Z</time></trkpt><trkpt lat="45.6381285" lon="11.4198935"><ele>104.28571428571428</ele><time>2026-03-31T16:37:27.171Z</time></trkpt><trkpt lat="45.6380789" lon="11.419837"><ele>104.85714285714285</ele><time>2026-03-31T16:37:31.172Z</time></trkpt><trkpt lat="45.6380212" lon="11.4197761"><ele>105.42857142857143</ele><time>2026-03-31T16:37:36.171Z</time></trkpt><trkpt lat="45.6379907" lon="11.4196826"><ele>106.0</ele><time>2026-03-31T16:37:42.171Z</time></trkpt><trkpt lat="45.637957" lon="11.4195913"><ele>107.57142857142858</ele><time>2026-03-31T16:37:50.172Z</time></trkpt><trkpt lat="45.637965" lon="11.419494"><ele>109.14285714285714</ele><time>2026-03-31T16:37:56.171Z</time></trkpt><trkpt lat="45.6379626" lon="11.4193952"><ele>110.71428571428572</ele><time>2026-03-31T16:38:02.17Z</time></trkpt><trkpt lat="45.6379912" lon="11.4193068"><ele>112.28571428571429</ele><time>2026-03-31T16:38:08.171Z</time></trkpt><trkpt lat="45.6379911" lon="11.419209"><ele>113.85714285714286</ele><time>2026-03-31T16:38:15.17Z</time></trkpt><trkpt lat="45.6379927" lon="11.4191165"><ele>115.42857142857143</ele><time>2026-03-31T16:38:20.171Z</time></trkpt><trkpt lat="45.6379504" lon="11.4190352"><ele>117.0</ele><time>2026-03-31T16:38:26.171Z</time></trkpt><trkpt lat="45.637929" lon="11.4189368"><ele>117.0</ele><time>2026-03-31T16:38:32.172Z</time></trkpt><trkpt lat="45.637915" lon="11.4188332"><ele>117.00000000000001</ele><time>2026-03-31T16:38:37.172Z</time></trkpt><trkpt lat="45.6379027" lon="11.4187297"><ele>117.0</ele><time>2026-03-31T16:38:43.171Z</time></trkpt><trkpt lat="45.637892" lon="11.4186242"><ele>117.0</ele><time>2026-03-31T16:38:49.171Z</time></trkpt><trkpt lat="45.6378511" lon="11.4185317"><ele>117.00000000000001</ele><time>2026-03-31T16:38:54.171Z</time></trkpt><trkpt lat="45.637789" lon="11.4184989"><ele>117.0</ele><time>2026-03-31T16:38:58.171Z</time></trkpt><trkpt lat="45.6377243" lon="11.4184892"><ele>117.0</ele><time>2026-03-31T16:39:02.172Z</time></trkpt><trkpt lat="45.637656" lon="11.4184802"><ele>118.5</ele><time>2026-03-31T16:39:06.172Z</time></trkpt><trkpt lat="45.6375801" lon="11.418442"><ele>120.0</ele><time>2026-03-31T16:39:10.171Z</time></trkpt><trkpt lat="45.6375035" lon="11.4184104"><ele>121.5</ele><time>2026-03-31T16:39:13.171Z</time></trkpt><trkpt lat="45.6374294" lon="11.4183397"><ele>123.0</ele><time>2026-03-31T16:39:16.17Z</time></trkpt><trkpt lat="45.637331" lon="11.4183045"><ele>124.5</ele><time>2026-03-31T16:39:18.17Z</time></trkpt><trkpt lat="45.637248" lon="11.4182637"><ele>126.0</ele><time>2026-03-31T16:39:21.172Z</time></trkpt><trkpt lat="45.6371738" lon="11.4182241"><ele>126.0</ele><time>2026-03-31T16:39:24.171Z</time></trkpt><trkpt lat="45.6371103" lon="11.4182687"><ele>126.0</ele><time>2026-03-31T16:39:30.208Z</time></trkpt><trkpt lat="45.6370202" lon="11.4182485"><ele>126.0</ele><time>2026-03-31T16:39:33.194Z</time></trkpt><trkpt lat="45.6369467" lon="11.418227"><ele>126.0</ele><time>2026-03-31T16:39:35.174Z</time></trkpt><trkpt lat="45.6367803" lon="11.4182123"><ele>126.0</ele><time>2026-03-31T16:39:37.171Z</time></trkpt><trkpt lat="45.6366962" lon="11.4182297"><ele>126.33333333333333</ele><time>2026-03-31T16:39:40.172Z</time></trkpt><trkpt lat="45.6366154" lon="11.418247"><ele>126.66666666666666</ele><time>2026-03-31T16:39:43.17Z</time></trkpt><trkpt lat="45.6365396" lon="11.4182655"><ele>127.0</ele><time>2026-03-31T16:39:46.172Z</time></trkpt><trkpt lat="45.6364746" lon="11.4182702"><ele>127.33333333333333</ele><time>2026-03-31T16:39:49.171Z</time></trkpt><trkpt lat="45.6363891" lon="11.4182836"><ele>127.66666666666666</ele><time>2026-03-31T16:39:53.171Z</time></trkpt><trkpt lat="45.6363233" lon="11.4182679"><ele>128.0</ele><time>2026-03-31T16:39:56.171Z</time></trkpt><trkpt lat="45.6362418" lon="11.4182686"><ele>128.0</ele><time>2026-03-31T16:40:00.171Z</time></trkpt><trkpt lat="45.6361766" lon="11.418281"><ele>127.99999999999999</ele><time>2026-03-31T16:40:03.17Z</time></trkpt><trkpt lat="45.6361031" lon="11.4182959"><ele>128.0</ele><time>2026-03-31T16:40:07.171Z</time></trkpt><trkpt lat="45.6360316" lon="11.4182918"><ele>128.0</ele><time>2026-03-31T16:40:11.171Z</time></trkpt><trkpt lat="45.635967" lon="11.4182899"><ele>127.99999999999999</ele><time>2026-03-31T16:40:14.17Z</time></trkpt><trkpt lat="45.6358949" lon="11.4183082"><ele>128.0</ele><time>2026-03-31T16:40:18.17Z</time></trkpt><trkpt lat="45.6358323" lon="11.4183222"><ele>128.0</ele><time>2026-03-31T16:40:22.171Z</time></trkpt><trkpt lat="45.6357602" lon="11.4183172"><ele>128.28571428571428</ele><time>2026-03-31T16:40:27.171Z</time></trkpt><trkpt lat="45.635696" lon="11.4182938"><ele>128.57142857142856</ele><time>2026-03-31T16:40:31.17Z</time></trkpt><trkpt lat="45.635607" lon="11.4182972"><ele>128.85714285714286</ele><time>2026-03-31T16:40:35.171Z</time></trkpt><trkpt lat="45.6355259" lon="11.4183208"><ele>129.14285714285714</ele><time>2026-03-31T16:40:37.17Z</time></trkpt><trkpt lat="45.635459" lon="11.418312"><ele>129.42857142857144</ele><time>2026-03-31T16:40:39.171Z</time></trkpt><trkpt lat="45.6354331" lon="11.418229"><ele>129.71428571428572</ele><time>2026-03-31T16:40:44.172Z</time></trkpt><trkpt lat="45.6353771" lon="11.4181618"><ele>130.0</ele><time>2026-03-31T16:40:50.171Z</time></trkpt><trkpt lat="45.6353361" lon="11.418076"><ele>129.71428571428572</ele><time>2026-03-31T16:40:55.17Z</time></trkpt><trkpt lat="45.6352849" lon="11.418008"><ele>129.42857142857144</ele><time>2026-03-31T16:41:02.171Z</time></trkpt><trkpt lat="45.6352264" lon="11.4179736"><ele>129.14285714285714</ele><time>2026-03-31T16:41:15.171Z</time></trkpt><trkpt lat="45.6351665" lon="11.4179451"><ele>128.85714285714286</ele><time>2026-03-31T16:41:21.171Z</time></trkpt><trkpt lat="45.6351096" lon="11.4178926"><ele>128.57142857142856</ele><time>2026-03-31T16:41:28.17Z</time></trkpt><trkpt lat="45.6350385" lon="11.4178551"><ele>128.28571428571428</ele><time>2026-03-31T16:41:33.171Z</time></trkpt><trkpt lat="45.6349899" lon="11.4177919"><ele>128.0</ele><time>2026-03-31T16:41:36.171Z</time></trkpt><trkpt lat="45.6349432" lon="11.4177166"><ele>130.0</ele><time>2026-03-31T16:41:40.171Z</time></trkpt><trkpt lat="45.6349282" lon="11.4176286"><ele>132.0</ele><time>2026-03-31T16:41:43.172Z</time></trkpt><trkpt lat="45.634925" lon="11.4175301"><ele>134.0</ele><time>2026-03-31T16:41:47.171Z</time></trkpt><trkpt lat="45.6347614" lon="11.4173369"><ele>136.0</ele><time>2026-03-31T16:41:56.171Z</time></trkpt><trkpt lat="45.6346813" lon="11.4173481"><ele>138.0</ele><time>2026-03-31T16:42:00.172Z</time></trkpt><trkpt lat="45.6346232" lon="11.4173919"><ele>138.0</ele><time>2026-03-31T16:42:04.171Z</time></trkpt><trkpt lat="45.6345488" lon="11.4173654"><ele>138.0</ele><time>2026-03-31T16:42:07.171Z</time></trkpt><trkpt lat="45.6344838" lon="11.4173391"><ele>138.0</ele><time>2026-03-31T16:42:12.171Z</time></trkpt><trkpt lat="45.6344175" lon="11.4173132"><ele>138.0</ele><time>2026-03-31T16:42:17.171Z</time></trkpt><trkpt lat="45.6343429" lon="11.4172858"><ele>138.0</ele><time>2026-03-31T16:42:23.171Z</time></trkpt><trkpt lat="45.6342869" lon="11.4172275"><ele>138.0</ele><time>2026-03-31T16:42:29.171Z</time></trkpt><trkpt lat="45.6342841" lon="11.4171358"><ele>138.0</ele><time>2026-03-31T16:42:36.172Z</time></trkpt><trkpt lat="45.634293" lon="11.4170463"><ele>138.85714285714286</ele><time>2026-03-31T16:42:43.17Z</time></trkpt><trkpt lat="45.6342955" lon="11.416956"><ele>139.71428571428572</ele><time>2026-03-31T16:42:50.172Z</time></trkpt><trkpt lat="45.6343085" lon="11.4168614"><ele>140.57142857142858</ele><time>2026-03-31T16:42:59.172Z</time></trkpt><trkpt lat="45.6342976" lon="11.4167666"><ele>141.42857142857144</ele><time>2026-03-31T16:43:04.171Z</time></trkpt><trkpt lat="45.6342725" lon="11.4166783"><ele>142.28571428571428</ele><time>2026-03-31T16:43:16.171Z</time></trkpt><trkpt lat="45.6342735" lon="11.4165842"><ele>143.14285714285717</ele><time>2026-03-31T16:43:23.17Z</time></trkpt><trkpt lat="45.6342465" lon="11.4164902"><ele>144.0</ele><time>2026-03-31T16:43:31.172Z</time></trkpt><trkpt lat="45.6342514" lon="11.4163929"><ele>145.2857142857143</ele><time>2026-03-31T16:43:38.172Z</time></trkpt><trkpt lat="45.6342542" lon="11.4163012"><ele>146.57142857142858</ele><time>2026-03-31T16:43:44.171Z</time></trkpt><trkpt lat="45.6342816" lon="11.4162107"><ele>147.85714285714286</ele><time>2026-03-31T16:43:51.171Z</time></trkpt><trkpt lat="45.634301" lon="11.4161129"><ele>149.14285714285717</ele><time>2026-03-31T16:43:57.17Z</time></trkpt><trkpt lat="45.6343062" lon="11.4160122"><ele>150.42857142857144</ele><time>2026-03-31T16:44:04.172Z</time></trkpt><trkpt lat="45.6343373" lon="11.4159157"><ele>151.71428571428572</ele><time>2026-03-31T16:44:09.171Z</time></trkpt><trkpt lat="45.6343531" lon="11.4158259"><ele>153.0</ele><time>2026-03-31T16:44:13.172Z</time></trkpt><trkpt lat="45.6343477" lon="11.4157202"><ele>153.0</ele><time>2026-03-31T16:44:17.17Z</time></trkpt><trkpt lat="45.6343624" lon="11.4155916"><ele>153.0</ele><time>2026-03-31T16:44:20.172Z</time></trkpt><trkpt lat="45.634376" lon="11.4155027"><ele>153.0</ele><time>2026-03-31T16:44:23.171Z</time></trkpt><trkpt lat="45.6343654" lon="11.4154018"><ele>153.0</ele><time>2026-03-31T16:44:29.171Z</time></trkpt><trkpt lat="45.6343081" lon="11.4154716"><ele>153.0</ele><time>2026-03-31T16:44:37.171Z</time></trkpt><trkpt lat="45.6342871" lon="11.4153762"><ele>153.0</ele><time>2026-03-31T16:44:48.171Z</time></trkpt></trkseg></trk></gpx>